Observation data for Guadalupe Mtns Park on 11/14/2019      Previous  Date  Next       Current Mesonet Observations  Soil Data  Daily Summary Page  Observations in Plain Language
KGU1 140600Z 34003KT 12/M08 A3011 RMK A01 T01161079  RH  025%=      5-min Rain = 0
KGU1 140601Z 35004KT 12/M08 A301 RMK A01 T01151078  RH  025%=      5-min Rain = 0
KGU1 140602Z 34003KT 11/M08 A301 RMK A01 T01141078  RH  025%=      5-min Rain = 0
KGU1 140603Z 35004KT 11/M08 A3011 RMK A01 T01121077  RH  026%=      5-min Rain = 0
KGU1 140604Z 35004KT 11/M08 A3011 RMK A01 T01111078  RH  026%=      5-min Rain = 0
KGU1 140605Z 35004KT 11/M08 A3011 RMK A01 T01131078  RH  026%=      5-min Rain = 0
KGU1 140606Z 35004KT 11/M08 A3011 RMK A01 T01131078  RH  025%=      5-min Rain = 0
KGU1 140607Z 34003KT 11/M08 A3011 RMK A01 T01131077  RH  026%=      5-min Rain = 0
KGU1 140608Z 33003KT 11/M08 A3011 RMK A01 T01131077  RH  026%=      5-min Rain = 0
KGU1 140609Z 31003KT 11/M08 A3011 RMK A01 T01141077  RH  025%=      5-min Rain = 0
KGU1 140610Z 30003KT 11/M08 A3011 RMK A01 T01131077  RH  026%=      5-min Rain = 0
KGU1 140611Z 32003KT 11/M08 A3011 RMK A01 T01101076  RH  026%=      5-min Rain = 0
KGU1 140612Z 32003KT 11/M08 A3011 RMK A01 T01081075  RH  027%=      5-min Rain = 0
KGU1 140613Z 32003KT 11/M08 A3011 RMK A01 T01051075  RH  027%=      5-min Rain = 0
KGU1 140614Z 33004KT 10/M08 A3011 RMK A01 T01041075  RH  028%=      5-min Rain = 0
KGU1 140615Z 33003KT 10/M07 A3011 RMK A01 T01021074  RH  028%=      5-min Rain = 0
KGU1 140616Z 31003KT 10/M07 A3011 RMK A01 T01011074  RH  028%=      5-min Rain = 0
KGU1 140617Z 33004KT 10/M08 A3011 RMK A01 T01021076  RH  028%=      5-min Rain = 0
KGU1 140618Z 34005KT 10/M08 A3011 RMK A01 T01031075  RH  028%=      5-min Rain = 0
KGU1 140619Z 33004KT 11/M08 A3011 RMK A01 T01071078  RH  027%=      5-min Rain = 0
KGU1 140620Z 33004KT 11/M08 A3011 RMK A01 T01121078  RH  026%=      5-min Rain = 0
KGU1 140621Z 33005KT 12/M08 A3011 RMK A01 T01151078  RH  025%=      5-min Rain = 0
KGU1 140622Z 32005KT 12/M08 A3011 RMK A01 T01161077  RH  025%=      5-min Rain = 0
KGU1 140623Z 32004KT 12/M08 A3011 RMK A01 T01171077  RH  025%=      5-min Rain = 0
KGU1 140624Z 32004KT 12/M08 A3011 RMK A01 T01191075  RH  025%=      5-min Rain = 0
KGU1 140625Z 32005KT 12/M08 A3011 RMK A01 T01171076  RH  025%=      5-min Rain = 0
KGU1 140626Z 33004KT 12/M08 A3011 RMK A01 T01181077  RH  025%=      5-min Rain = 0
KGU1 140627Z 30003KT 12/M08 A3011 RMK A01 T01191077  RH  025%=      5-min Rain = 0
KGU1 140628Z 30004KT 12/M08 A3011 RMK A01 T01191077  RH  025%=      5-min Rain = 0
KGU1 140629Z 33005KT 12/M08 A3011 RMK A01 T01181076  RH  025%=      5-min Rain = 0
KGU1 140630Z 31004KT 12/M07 A3011 RMK A01 T01151074  RH  026%=      5-min Rain = 0
KGU1 140631Z 32005KT 11/M07 A3011 RMK A01 T01131073  RH  026%=      5-min Rain = 0
KGU1 140632Z 32005KT 11/M07 A3011 RMK A01 T01111072  RH  027%=      5-min Rain = 0
KGU1 140633Z 32005KT 11/M07 A3011 RMK A01 T01101072  RH  027%=      5-min Rain = 0
KGU1 140634Z 31005KT 11/M07 A3011 RMK A01 T01111073  RH  027%=      5-min Rain = 0
KGU1 140635Z 31006KT 11/M07 A3011 RMK A01 T01141072  RH  026%=      5-min Rain = 0
KGU1 140636Z 30005KT 11/M07 A3011 RMK A01 T01121070  RH  027%=      5-min Rain = 0
KGU1 140637Z 29004KT 11/M07 A3011 RMK A01 T01111071  RH  027%=      5-min Rain = 0
KGU1 140638Z 31004KT 11/M07 A3011 RMK A01 T01101070  RH  027%=      5-min Rain = 0
KGU1 140639Z 32004KT 11/M07 A3011 RMK A01 T01091071  RH  028%=      5-min Rain = 0
KGU1 140640Z 34003KT 11/M07 A3011 RMK A01 T01081071  RH  028%=      5-min Rain = 0
KGU1 140641Z 33002KT 11/M07 A3011 RMK A01 T01081072  RH  028%=      5-min Rain = 0
KGU1 140642Z 33003KT 11/M07 A3011 RMK A01 T01081072  RH  028%=      5-min Rain = 0
KGU1 140643Z 34003KT 11/M07 A3011 RMK A01 T01091073  RH  027%=      5-min Rain = 0
KGU1 140644Z 34003KT 11/M07 A3011 RMK A01 T01111073  RH  027%=      5-min Rain = 0
KGU1 140645Z 35002KT 11/M07 A3011 RMK A01 T01101072  RH  027%=      5-min Rain = 0
KGU1 140646Z 34002KT 11/M07 A3011 RMK A01 T01101074  RH  027%=      5-min Rain = 0
KGU1 140647Z 35002KT 11/M07 A3011 RMK A01 T01111074  RH  026%=      5-min Rain = 0
KGU1 140648Z 35002KT 11/M08 A3011 RMK A01 T01121075  RH  026%=      5-min Rain = 0
KGU1 140649Z 36002KT 11/M07 A3011 RMK A01 T01111073  RH  027%=      5-min Rain = 0
KGU1 140650Z 34003KT 11/M07 A3011 RMK A01 T01091074  RH  027%=      5-min Rain = 0
KGU1 140651Z 34003KT 11/M08 A3011 RMK A01 T01081075  RH  027%=      5-min Rain = 0
KGU1 140652Z 33003KT 11/M08 A3011 RMK A01 T01111076  RH  026%=      5-min Rain = 0
KGU1 140653Z 33003KT 11/M08 A3011 RMK A01 T01121075  RH  026%=      5-min Rain = 0
KGU1 140654Z 35002KT 11/M08 A3012 RMK A01 T01121076  RH  026%=      5-min Rain = 0
KGU1 140655Z 33003KT 11/M08 A3012 RMK A01 T01121075  RH  026%=      5-min Rain = 0
KGU1 140656Z 33002KT 11/M08 A3012 RMK A01 T01101075  RH  027%=      5-min Rain = 0
KGU1 140657Z 00004KT 11/M07 A3012 RMK A01 T01091073  RH  027%=      5-min Rain = 0
KGU1 140658Z 00004KT 11/M07 A3012 RMK A01 T01071074  RH  027%=      5-min Rain = 0
KGU1 140659Z 35003KT 11/M07 A3012 RMK A01 T01071074  RH  027%=      5-min Rain = 0
KGU1 140700Z 33004KT 11/M07 A3012 RMK A01 T01091074  RH  027%=      5-min Rain = 0
KGU1 140701Z 32004KT 11/M07 A3012 RMK A01 T01111074  RH  027%=      5-min Rain = 0
KGU1 140702Z 31005KT 11/M07 A3012 RMK A01 T01091072  RH  027%=      5-min Rain = 0
KGU1 140703Z 31005KT 11/M07 A3012 RMK A01 T01051070  RH  029%=      5-min Rain = 0
KGU1 140704Z 32005KT 10/M07 A3012 RMK A01 T01021071  RH  029%=      5-min Rain = 0
KGU1 140705Z 32004KT 10/M07 A3012 RMK A01 T01031071  RH  029%=      5-min Rain = 0
KGU1 140706Z 32004KT 10/M07 A3012 RMK A01 T01021069  RH  029%=      5-min Rain = 0
KGU1 140707Z 33003KT 10/M07 A3012 RMK A01 T01011069  RH  030%=      5-min Rain = 0
KGU1 140708Z 32002KT 10/M07 A3012 RMK A01 T01011070  RH  029%=      5-min Rain = 0
KGU1 140709Z 36001KT 10/M07 A3012 RMK A01 T01011069  RH  029%=      5-min Rain = 0
KGU1 140710Z 06000KT 10/M07 A3012 RMK A01 T01001070  RH  030%=      5-min Rain = 0
KGU1 140711Z 08001KT 10/M07 A3012 RMK A01 T01001071  RH  029%=      5-min Rain = 0
KGU1 140712Z 14002KT 10/M07 A3012 RMK A01 T00991069  RH  030%=      5-min Rain = 0
KGU1 140713Z 15002KT 10/M07 A3012 RMK A01 T00981071  RH  030%=      5-min Rain = 0
KGU1 140714Z 16001KT 10/M07 A3012 RMK A01 T01011072  RH  029%=      5-min Rain = 0
KGU1 140715Z 18000KT 10/M07 A3012 RMK A01 T01031072  RH  028%=      5-min Rain = 0
KGU1 140716Z 04000KT 10/M07 A3012 RMK A01 T01031071  RH  029%=      5-min Rain = 0
KGU1 140717Z 09002KT 10/M07 A3013 RMK A01 T01031073  RH  028%=      5-min Rain = 0
KGU1 140718Z 10003KT 10/M07 A3013 RMK A01 T01041073  RH  028%=      5-min Rain = 0
KGU1 140719Z 10002KT 10/M07 A3013 RMK A01 T01041072  RH  028%=      5-min Rain = 0
KGU1 140720Z 09000KT 10/M07 A3013 RMK A01 T01041073  RH  028%=      5-min Rain = 0
KGU1 140721Z 00000KT 10/M07 A3013 RMK A01 T01031073  RH  028%=      5-min Rain = 0
KGU1 140722Z 00000KT 10/M07 A3013 RMK A01 T01031073  RH  028%=      5-min Rain = 0
KGU1 140723Z 30001KT 10/M07 A3013 RMK A01 T01021071  RH  029%=      5-min Rain = 0
KGU1 140724Z 29002KT 10/M07 A3013 RMK A01 T00991071  RH  029%=      5-min Rain = 0
KGU1 140725Z 29002KT 10/M07 A3013 RMK A01 T00981071  RH  030%=      5-min Rain = 0
KGU1 140726Z 29001KT 10/M07 A3013 RMK A01 T00991072  RH  029%=      5-min Rain = 0
KGU1 140727Z 30001KT 10/M07 A3013 RMK A01 T01001073  RH  029%=      5-min Rain = 0
KGU1 140728Z 29000KT 10/M07 A3013 RMK A01 T01021073  RH  028%=      5-min Rain = 0
KGU1 140729Z 28000KT 10/M07 A3013 RMK A01 T01041073  RH  028%=      5-min Rain = 0
KGU1 140730Z 29000KT 11/M07 A3013 RMK A01 T01051074  RH  028%=      5-min Rain = 0
KGU1 140731Z 29001KT 11/M07 A3013 RMK A01 T01061074  RH  027%=      5-min Rain = 0
KGU1 140732Z 29001KT 11/M07 A3013 RMK A01 T01071073  RH  027%=      5-min Rain = 0
KGU1 140733Z 26001KT 11/M07 A3013 RMK A01 T01091074  RH  027%=      5-min Rain = 0
KGU1 140734Z 27001KT 11/M07 A3013 RMK A01 T01101074  RH  027%=      5-min Rain = 0
KGU1 140735Z 29003KT 11/M07 A3013 RMK A01 T01091072  RH  027%=      5-min Rain = 0
KGU1 140736Z 29004KT 11/M07 A3013 RMK A01 T01051071  RH  028%=      5-min Rain = 0
KGU1 140737Z 29003KT 10/M07 A3013 RMK A01 T01001071  RH  029%=      5-min Rain = 0
KGU1 140738Z 27003KT 10/M07 A3013 RMK A01 T00991071  RH  029%=      5-min Rain = 0
KGU1 140739Z 26003KT 10/M07 A3013 RMK A01 T01001072  RH  029%=      5-min Rain = 0
KGU1 140740Z 26003KT 10/M07 A3013 RMK A01 T01011072  RH  029%=      5-min Rain = 0
KGU1 140741Z 25002KT 10/M07 A3013 RMK A01 T01031072  RH  029%=      5-min Rain = 0
KGU1 140742Z 24002KT 10/M07 A3013 RMK A01 T01041073  RH  028%=      5-min Rain = 0
KGU1 140743Z 21002KT 11/M07 A3013 RMK A01 T01071073  RH  027%=      5-min Rain = 0
KGU1 140744Z 20002KT 11/M07 A3013 RMK A01 T01091073  RH  027%=      5-min Rain = 0
KGU1 140745Z 20002KT 11/M07 A3013 RMK A01 T01101072  RH  027%=      5-min Rain = 0
KGU1 140746Z 19002KT 11/M07 A3013 RMK A01 T01101073  RH  027%=      5-min Rain = 0
KGU1 140747Z 19002KT 11/M07 A3013 RMK A01 T01111073  RH  027%=      5-min Rain = 0
KGU1 140748Z 19002KT 11/M07 A3014 RMK A01 T01111073  RH  027%=      5-min Rain = 0
KGU1 140749Z 19002KT 11/M07 A3014 RMK A01 T01121072  RH  027%=      5-min Rain = 0
KGU1 140750Z 18002KT 11/M07 A3014 RMK A01 T01121071  RH  027%=      5-min Rain = 0
KGU1 140751Z 17003KT 11/M07 A3014 RMK A01 T01121071  RH  027%=      5-min Rain = 0
KGU1 140752Z 17002KT 11/M07 A3014 RMK A01 T01111071  RH  027%=      5-min Rain = 0
KGU1 140753Z 17002KT 11/M07 A3014 RMK A01 T01101070  RH  028%=      5-min Rain = 0
KGU1 140754Z 17002KT 11/M07 A3014 RMK A01 T01091070  RH  028%=      5-min Rain = 0
KGU1 140755Z 20001KT 11/M07 A3014 RMK A01 T01081069  RH  028%=      5-min Rain = 0
KGU1 140756Z 24001KT 11/M07 A3014 RMK A01 T01071070  RH  028%=      5-min Rain = 0
KGU1 140757Z 24001KT 11/M07 A3014 RMK A01 T01081071  RH  028%=      5-min Rain = 0
KGU1 140758Z 24001KT 11/M07 A3014 RMK A01 T01101071  RH  027%=      5-min Rain = 0
KGU1 140759Z 24001KT 11/M07 A3014 RMK A01 T01101070  RH  028%=      5-min Rain = 0
KGU1 140800Z 23000KT 11/M07 A3014 RMK A01 T01101071  RH  027%=      5-min Rain = 0
KGU1 140801Z 21000KT 11/M07 A3014 RMK A01 T01101071  RH  027%=      5-min Rain = 0
KGU1 140802Z 15001KT 11/M07 A3014 RMK A01 T01111072  RH  027%=      5-min Rain = 0
KGU1 140803Z 31000KT 11/M07 A3014 RMK A01 T01111070  RH  027%=      5-min Rain = 0
KGU1 140804Z 29002KT 11/M07 A3014 RMK A01 T01061066  RH  029%=      5-min Rain = 0
KGU1 140805Z 27001KT 10/M06 A3014 RMK A01 T00971064  RH  032%=      5-min Rain = 0
KGU1 140806Z 28001KT 09/M06 A3014 RMK A01 T00911064  RH  033%=      5-min Rain = 0
KGU1 140807Z 24002KT 09/M07 A3014 RMK A01 T00901067  RH  032%=      5-min Rain = 0
KGU1 140808Z 21002KT 10/M07 A3014 RMK A01 T00951069  RH  031%=      5-min Rain = 0
KGU1 140809Z 21003KT 10/M07 A3014 RMK A01 T00991068  RH  030%=      5-min Rain = 0
KGU1 140810Z 21003KT 10/M07 A3014 RMK A01 T01031069  RH  029%=      5-min Rain = 0
KGU1 140811Z 22002KT 11/M07 A3014 RMK A01 T01051069  RH  029%=      5-min Rain = 0
KGU1 140812Z 25002KT 11/M07 A3014 RMK A01 T01051068  RH  029%=      5-min Rain = 0
KGU1 140813Z 26002KT 11/M07 A3014 RMK A01 T01051069  RH  029%=      5-min Rain = 0
KGU1 140814Z 27002KT 11/M07 A3014 RMK A01 T01051067  RH  029%=      5-min Rain = 0
KGU1 140815Z 25002KT 10/M07 A3014 RMK A01 T01031067  RH  029%=      5-min Rain = 0
KGU1 140816Z 24001KT 10/M07 A3014 RMK A01 T01031068  RH  029%=      5-min Rain = 0
KGU1 140817Z 25000KT 10/M07 A3014 RMK A01 T01031068  RH  029%=      5-min Rain = 0
KGU1 140818Z 20000KT 10/M07 A3014 RMK A01 T01041068  RH  029%=      5-min Rain = 0
KGU1 140819Z 13002KT 11/M07 A3014 RMK A01 T01051068  RH  029%=      5-min Rain = 0
KGU1 140820Z 12004KT 11/M07 A3015 RMK A01 T01061068  RH  029%=      5-min Rain = 0
KGU1 140821Z 11003KT 11/M07 A3015 RMK A01 T01051067  RH  029%=      5-min Rain = 0
KGU1 140822Z 11003KT 11/M07 A3015 RMK A01 T01061065  RH  030%=      5-min Rain = 0
KGU1 140823Z 10003KT 11/M07 A3015 RMK A01 T01061065  RH  030%=      5-min Rain = 0
KGU1 140824Z 10002KT 11/M06 A3015 RMK A01 T01071063  RH  030%=      5-min Rain = 0
KGU1 140825Z 09003KT 11/M06 A3015 RMK A01 T01061063  RH  030%=      5-min Rain = 0
KGU1 140826Z 08004KT 11/M06 A3015 RMK A01 T01051062  RH  030%=      5-min Rain = 0
KGU1 140827Z 07002KT 11/M06 A3015 RMK A01 T01051062  RH  030%=      5-min Rain = 0
KGU1 140828Z 07002KT 10/M06 A3015 RMK A01 T01041062  RH  030%=      5-min Rain = 0
KGU1 140829Z 05002KT 10/M06 A3015 RMK A01 T01031063  RH  031%=      5-min Rain = 0
KGU1 140830Z 05002KT 10/M06 A3015 RMK A01 T01011063  RH  031%=      5-min Rain = 0
KGU1 140831Z 06002KT 10/M06 A3015 RMK A01 T00991063  RH  031%=      5-min Rain = 0
KGU1 140832Z 04002KT 10/M06 A3015 RMK A01 T00981064  RH  031%=      5-min Rain = 0
KGU1 140833Z 00003KT 10/M06 A3015 RMK A01 T00961064  RH  032%=      5-min Rain = 0
KGU1 140834Z 34002KT 09/M06 A3015 RMK A01 T00921063  RH  033%=      5-min Rain = 0
KGU1 140835Z 34003KT 09/M06 A3015 RMK A01 T00851061  RH  035%=      5-min Rain = 0
KGU1 140836Z 36002KT 08/M06 A3015 RMK A01 T00811061  RH  036%=      5-min Rain = 0
KGU1 140837Z 34002KT 08/M06 A3015 RMK A01 T00801061  RH  036%=      5-min Rain = 0
KGU1 140838Z 35002KT 08/M06 A3015 RMK A01 T00811061  RH  036%=      5-min Rain = 0
KGU1 140839Z 35001KT 08/M06 A3015 RMK A01 T00831062  RH  035%=      5-min Rain = 0
KGU1 140840Z 01001KT 09/M06 A3015 RMK A01 T00851062  RH  035%=      5-min Rain = 0
KGU1 140841Z 02001KT 09/M06 A3015 RMK A01 T00851062  RH  035%=      5-min Rain = 0
KGU1 140842Z 06001KT 09/M06 A3015 RMK A01 T00861062  RH  034%=      5-min Rain = 0
KGU1 140843Z 07002KT 09/M06 A3015 RMK A01 T00871063  RH  034%=      5-min Rain = 0
KGU1 140844Z 09002KT 09/M06 A3015 RMK A01 T00881062  RH  034%=      5-min Rain = 0
KGU1 140845Z 08002KT 09/M06 A3015 RMK A01 T00891062  RH  034%=      5-min Rain = 0
KGU1 140846Z 08003KT 09/M06 A3015 RMK A01 T00921062  RH  033%=      5-min Rain = 0
KGU1 140847Z 07003KT 10/M06 A3015 RMK A01 T00951062  RH  032%=      5-min Rain = 0
KGU1 140848Z 08002KT 10/M06 A3015 RMK A01 T00981061  RH  032%=      5-min Rain = 0
KGU1 140849Z 06001KT 10/M06 A3015 RMK A01 T00991060  RH  032%=      5-min Rain = 0
KGU1 140850Z 08002KT 10/M06 A3015 RMK A01 T01001061  RH  032%=      5-min Rain = 0
KGU1 140851Z 08003KT 10/M06 A3015 RMK A01 T01001061  RH  032%=      5-min Rain = 0
KGU1 140852Z 09003KT 10/M06 A3015 RMK A01 T01001061  RH  032%=      5-min Rain = 0
KGU1 140853Z 09003KT 10/M06 A3015 RMK A01 T00981060  RH  032%=      5-min Rain = 0
KGU1 140854Z 09001KT 10/M06 A3015 RMK A01 T00961060  RH  033%=      5-min Rain = 0
KGU1 140855Z 29002KT 09/M06 A3015 RMK A01 T00891059  RH  035%=      5-min Rain = 0
KGU1 140856Z 27001KT 08/M06 A3016 RMK A01 T00801059  RH  037%=      5-min Rain = 0
KGU1 140857Z 28001KT 08/M06 A3016 RMK A01 T00771060  RH  037%=      5-min Rain = 0
KGU1 140858Z 32001KT 08/M06 A3016 RMK A01 T00791060  RH  037%=      5-min Rain = 0
KGU1 140859Z 00000KT 08/M06 A3016 RMK A01 T00811060  RH  036%=      5-min Rain = 0
KGU1 140900Z 30000KT 08/M06 A3016 RMK A01 T00821060  RH  036%=      5-min Rain = 0
KGU1 140901Z 27001KT 08/M06 A3016 RMK A01 T00841060  RH  035%=      5-min Rain = 0
KGU1 140902Z 27000KT 09/M06 A3016 RMK A01 T00861060  RH  035%=      5-min Rain = 0
KGU1 140903Z 00000KT 09/M06 A3016 RMK A01 T00871060  RH  035%=      5-min Rain = 0
KGU1 140904Z 00000KT 09/M06 A3016 RMK A01 T00871060  RH  035%=      5-min Rain = 0
KGU1 140905Z 00000KT 09/M06 A3016 RMK A01 T00871060  RH  035%=      5-min Rain = 0
KGU1 140906Z 00000KT 09/M06 A3016 RMK A01 T00861060  RH  035%=      5-min Rain = 0
KGU1 140907Z 00000KT 09/M06 A3016 RMK A01 T00861059  RH  035%=      5-min Rain = 0
KGU1 140908Z 13000KT 09/M06 A3016 RMK A01 T00861059  RH  035%=      5-min Rain = 0
KGU1 140909Z 00000KT 09/M06 A3016 RMK A01 T00871059  RH  035%=      5-min Rain = 0
KGU1 140910Z 00000KT 09/M06 A3016 RMK A01 T00871058  RH  035%=      5-min Rain = 0
KGU1 140911Z 00000KT 09/M06 A3016 RMK A01 T00871058  RH  035%=      5-min Rain = 0
KGU1 140912Z 00000KT 09/M06 A3016 RMK A01 T00871058  RH  035%=      5-min Rain = 0
KGU1 140913Z 00000KT 09/M06 A3016 RMK A01 T00881058  RH  035%=      5-min Rain = 0
KGU1 140914Z 00000KT 09/M06 A3016 RMK A01 T00881058  RH  035%=      5-min Rain = 0
KGU1 140915Z 00000KT 09/M06 A3016 RMK A01 T00861058  RH  035%=      5-min Rain = 0
KGU1 140916Z 00000KT 09/M06 A3016 RMK A01 T00851058  RH  036%=      5-min Rain = 0
KGU1 140917Z 01001KT 09/M06 A3016 RMK A01 T00851058  RH  036%=      5-min Rain = 0
KGU1 140918Z 35001KT 09/M06 A3016 RMK A01 T00851057  RH  036%=      5-min Rain = 0
KGU1 140919Z 01002KT 09/M06 A3016 RMK A01 T00851056  RH  036%=      5-min Rain = 0
KGU1 140920Z 01002KT 09/M06 A3016 RMK A01 T00861056  RH  036%=      5-min Rain = 0
KGU1 140921Z 00002KT 09/M06 A3016 RMK A01 T00851056  RH  036%=      5-min Rain = 0
KGU1 140922Z 01001KT 08/M06 A3016 RMK A01 T00821056  RH  037%=      5-min Rain = 0
KGU1 140923Z 03001KT 08/M06 A3016 RMK A01 T00811056  RH  037%=      5-min Rain = 0
KGU1 140924Z 00001KT 08/M06 A3016 RMK A01 T00801055  RH  038%=      5-min Rain = 0
KGU1 140925Z 30003KT 07/M06 A3016 RMK A01 T00741056  RH  039%=      5-min Rain = 0
KGU1 140926Z 31002KT 07/M06 A3016 RMK A01 T00681056  RH  041%=      5-min Rain = 0
KGU1 140927Z 32002KT 06/M06 A3016 RMK A01 T00631056  RH  042%=      5-min Rain = 0
KGU1 140928Z 32002KT 06/M06 A3016 RMK A01 T00611055  RH  043%=      5-min Rain = 0
KGU1 140929Z 31002KT 06/M06 A3016 RMK A01 T00601055  RH  044%=      5-min Rain = 0
KGU1 140930Z 31003KT 06/M06 A3016 RMK A01 T00571055  RH  044%=      5-min Rain = 0
KGU1 140931Z 31003KT 06/M05 A3016 RMK A01 T00551054  RH  045%=      5-min Rain = 0
KGU1 140932Z 31003KT 05/M05 A3016 RMK A01 T00531054  RH  046%=      5-min Rain = 0
KGU1 140933Z 32002KT 05/M05 A3016 RMK A01 T00521054  RH  046%=      5-min Rain = 0
KGU1 140934Z 33002KT 05/M05 A3016 RMK A01 T00531054  RH  046%=      5-min Rain = 0
KGU1 140935Z 35001KT 05/M06 A3016 RMK A01 T00521055  RH  046%=      5-min Rain = 0
KGU1 140936Z 01002KT 05/M06 A3016 RMK A01 T00541055  RH  045%=      5-min Rain = 0
KGU1 140937Z 02002KT 06/M06 A3016 RMK A01 T00581055  RH  044%=      5-min Rain = 0
KGU1 140938Z 03002KT 06/M06 A3016 RMK A01 T00621055  RH  043%=      5-min Rain = 0
KGU1 140939Z 05002KT 06/M06 A3016 RMK A01 T00641055  RH  042%=      5-min Rain = 0
KGU1 140940Z 04002KT 07/M06 A3016 RMK A01 T00671055  RH  041%=      5-min Rain = 0
KGU1 140941Z 05002KT 07/M06 A3016 RMK A01 T00691055  RH  041%=      5-min Rain = 0
KGU1 140942Z 05004KT 07/M06 A3016 RMK A01 T00701056  RH  040%=      5-min Rain = 0
KGU1 140943Z 05005KT 07/M06 A3016 RMK A01 T00711055  RH  040%=      5-min Rain = 0
KGU1 140944Z 02002KT 07/M06 A3016 RMK A01 T00711056  RH  040%=      5-min Rain = 0
KGU1 140945Z 03004KT 07/M06 A3017 RMK A01 T00711056  RH  040%=      5-min Rain = 0
KGU1 140946Z 05004KT 07/M06 A3017 RMK A01 T00721056  RH  040%=      5-min Rain = 0
KGU1 140947Z 05004KT 07/M06 A3017 RMK A01 T00731056  RH  040%=      5-min Rain = 0
KGU1 140948Z 04004KT 07/M06 A3017 RMK A01 T00721056  RH  040%=      5-min Rain = 0
KGU1 140949Z 05004KT 07/M06 A3017 RMK A01 T00691056  RH  040%=      5-min Rain = 0
KGU1 140950Z 05004KT 07/M06 A3017 RMK A01 T00681056  RH  041%=      5-min Rain = 0
KGU1 140951Z 05004KT 07/M06 A3017 RMK A01 T00671056  RH  041%=      5-min Rain = 0
KGU1 140952Z 05005KT 07/M06 A3017 RMK A01 T00661056  RH  041%=      5-min Rain = 0
KGU1 140953Z 05006KT 07/M06 A3017 RMK A01 T00661056  RH  042%=      5-min Rain = 0
KGU1 140954Z 06007KT 07/M06 A3017 RMK A01 T00661056  RH  042%=      5-min Rain = 0
KGU1 140955Z 06006KT 07/M06 A3017 RMK A01 T00651055  RH  042%=      5-min Rain = 0
KGU1 140956Z 06007KT 06/M06 A3017 RMK A01 T00641056  RH  042%=      5-min Rain = 0
KGU1 140957Z 06007KT 06/M06 A3017 RMK A01 T00631056  RH  042%=      5-min Rain = 0
KGU1 140958Z 07005KT 07/M06 A3017 RMK A01 T00651055  RH  042%=      5-min Rain = 0
KGU1 140959Z 06006KT 06/M06 A3017 RMK A01 T00641056  RH  042%=      5-min Rain = 0
KGU1 141000Z 05005KT 06/M06 A3017 RMK A01 T00641055  RH  042%=      5-min Rain = 0
KGU1 141001Z 05005KT 06/M06 A3017 RMK A01 T00621056  RH  043%=      5-min Rain = 0
KGU1 141002Z 06005KT 06/M06 A3017 RMK A01 T00611056  RH  043%=      5-min Rain = 0
KGU1 141003Z 07006KT 06/M06 A3017 RMK A01 T00611055  RH  043%=      5-min Rain = 0
KGU1 141004Z 07006KT 06/M06 A3017 RMK A01 T00621055  RH  043%=      5-min Rain = 0
KGU1 141005Z 06005KT 07/M05 A3017 RMK A01 T00651054  RH  042%=      5-min Rain = 0
KGU1 141006Z 06004KT 07/M06 A3017 RMK A01 T00661055  RH  042%=      5-min Rain = 0
KGU1 141007Z 06005KT 07/M06 A3017 RMK A01 T00651055  RH  042%=      5-min Rain = 0
KGU1 141008Z 05005KT 07/M06 A3017 RMK A01 T00651055  RH  042%=      5-min Rain = 0
KGU1 141009Z 05003KT 07/M06 A3017 RMK A01 T00651055  RH  042%=      5-min Rain = 0
KGU1 141010Z 05003KT 07/M06 A3017 RMK A01 T00651055  RH  042%=      5-min Rain = 0
KGU1 141011Z 05002KT 06/M06 A3017 RMK A01 T00641055  RH  042%=      5-min Rain = 0
KGU1 141012Z 05002KT 06/M06 A3017 RMK A01 T00641055  RH  042%=      5-min Rain = 0
KGU1 141013Z 07002KT 06/M06 A3017 RMK A01 T00631055  RH  043%=      5-min Rain = 0
KGU1 141014Z 07002KT 06/M06 A3017 RMK A01 T00631055  RH  043%=      5-min Rain = 0
KGU1 141015Z 07004KT 06/M06 A3017 RMK A01 T00631055  RH  043%=      5-min Rain = 0
KGU1 141016Z 07003KT 07/M05 A3017 RMK A01 T00651054  RH  043%=      5-min Rain = 0
KGU1 141017Z 07003KT 07/M05 A3017 RMK A01 T00661054  RH  042%=      5-min Rain = 0
KGU1 141018Z 07003KT 07/M05 A3017 RMK A01 T00661054  RH  042%=      5-min Rain = 0
KGU1 141019Z 07003KT 07/M05 A3017 RMK A01 T00661053  RH  042%=      5-min Rain = 0
KGU1 141020Z 07004KT 07/M05 A3017 RMK A01 T00651053  RH  043%=      5-min Rain = 0
KGU1 141021Z 07006KT 07/M05 A3017 RMK A01 T00661052  RH  043%=      5-min Rain = 0
KGU1 141022Z 07007KT 07/M05 A3017 RMK A01 T00681051  RH  043%=      5-min Rain = 0
KGU1 141023Z 07006KT 07/M05 A3017 RMK A01 T00701049  RH  042%=      5-min Rain = 0
KGU1 141024Z 07006KT 07/M05 A3017 RMK A01 T00701049  RH  042%=      5-min Rain = 0
KGU1 141025Z 07007KT 07/M05 A3017 RMK A01 T00711049  RH  042%=      5-min Rain = 0
KGU1 141026Z 06006KT 07/M05 A3017 RMK A01 T00711048  RH  043%=      5-min Rain = 0
KGU1 141027Z 05006KT 07/M05 A3017 RMK A01 T00691049  RH  043%=      5-min Rain = 0
KGU1 141028Z 06005KT 07/M05 A3017 RMK A01 T00671049  RH  043%=      5-min Rain = 0
KGU1 141029Z 06006KT 07/M05 A3017 RMK A01 T00651049  RH  044%=      5-min Rain = 0
KGU1 141030Z 07007KT 07/M05 A3017 RMK A01 T00651048  RH  044%=      5-min Rain = 0
KGU1 141031Z 06007KT 07/M05 A3017 RMK A01 T00661047  RH  044%=      5-min Rain = 0
KGU1 141032Z 07008KT 07/M05 A3017 RMK A01 T00681047  RH  044%=      5-min Rain = 0
KGU1 141033Z 06008KT 07/M05 A3017 RMK A01 T00681047  RH  044%=      5-min Rain = 0
KGU1 141034Z 06008KT 07/M05 A3017 RMK A01 T00681046  RH  044%=      5-min Rain = 0
KGU1 141035Z 05008KT 07/M05 A3017 RMK A01 T00681046  RH  044%=      5-min Rain = 0
KGU1 141036Z 05008KT 07/M05 A3017 RMK A01 T00681045  RH  044%=      5-min Rain = 0
KGU1 141037Z 05007KT 07/M05 A3017 RMK A01 T00671045  RH  045%=      5-min Rain = 0
KGU1 141038Z 06007KT 07/M05 A3017 RMK A01 T00661045  RH  045%=      5-min Rain = 0
KGU1 141039Z 06007KT 07/M05 A3018 RMK A01 T00661045  RH  045%=      5-min Rain = 0
KGU1 141040Z 06008KT 07/M04 A3017 RMK A01 T00681044  RH  045%=      5-min Rain = 0
KGU1 141041Z 06007KT 07/M05 A3018 RMK A01 T00701045  RH  044%=      5-min Rain = 0
KGU1 141042Z 06007KT 07/M05 A3017 RMK A01 T00711045  RH  044%=      5-min Rain = 0
KGU1 141043Z 06008KT 07/M05 A3017 RMK A01 T00711045  RH  044%=      5-min Rain = 0
KGU1 141044Z 06008KT 07/M05 A3018 RMK A01 T00711045  RH  044%=      5-min Rain = 0
KGU1 141045Z 07008KT 07/M04 A3017 RMK A01 T00731044  RH  043%=      5-min Rain = 0
KGU1 141046Z 07008KT 07/M04 A3018 RMK A01 T00731044  RH  043%=      5-min Rain = 0
KGU1 141047Z 07009KT 07/M04 A3018 RMK A01 T00731044  RH  043%=      5-min Rain = 0
KGU1 141048Z 06008KT 07/M04 A3018 RMK A01 T00741044  RH  043%=      5-min Rain = 0
KGU1 141049Z 07007KT 07/M04 A3018 RMK A01 T00741044  RH  043%=      5-min Rain = 0
KGU1 141050Z 06007KT 07/M04 A3018 RMK A01 T00741044  RH  043%=      5-min Rain = 0
KGU1 141051Z 07007KT 07/M04 A3018 RMK A01 T00741043  RH  043%=      5-min Rain = 0
KGU1 141052Z 06007KT 07/M04 A3018 RMK A01 T00731043  RH  044%=      5-min Rain = 0
KGU1 141053Z 07006KT 07/M04 A3018 RMK A01 T00721043  RH  044%=      5-min Rain = 0
KGU1 141054Z 07006KT 07/M04 A3018 RMK A01 T00711044  RH  044%=      5-min Rain = 0
KGU1 141055Z 06006KT 07/M04 A3018 RMK A01 T00701043  RH  044%=      5-min Rain = 0
KGU1 141056Z 07006KT 07/M04 A3018 RMK A01 T00701043  RH  044%=      5-min Rain = 0
KGU1 141057Z 07006KT 07/M04 A3018 RMK A01 T00701043  RH  045%=      5-min Rain = 0
KGU1 141058Z 08005KT 07/M04 A3018 RMK A01 T00691043  RH  045%=      5-min Rain = 0
KGU1 141059Z 08007KT 07/M04 A3018 RMK A01 T00691043  RH  045%=      5-min Rain = 0
KGU1 141100Z 08007KT 07/M04 A3018 RMK A01 T00691043  RH  045%=      5-min Rain = 0
KGU1 141101Z 08008KT 07/M04 A3018 RMK A01 T00691043  RH  045%=      5-min Rain = 0
KGU1 141102Z 08008KT 07/M04 A3018 RMK A01 T00701043  RH  045%=      5-min Rain = 0
KGU1 141103Z 08007KT 07/M04 A3018 RMK A01 T00701043  RH  045%=      5-min Rain = 0
KGU1 141104Z 07008KT 07/M04 A3019 RMK A01 T00691043  RH  045%=      5-min Rain = 0
KGU1 141105Z 07006KT 07/M04 A3019 RMK A01 T00701043  RH  045%=      5-min Rain = 0
KGU1 141106Z 07006KT 07/M04 A3019 RMK A01 T00691043  RH  045%=      5-min Rain = 0
KGU1 141107Z 07007KT 07/M04 A3019 RMK A01 T00691043  RH  045%=      5-min Rain = 0
KGU1 141108Z 07007KT 07/M04 A3019 RMK A01 T00691042  RH  045%=      5-min Rain = 0
KGU1 141109Z 07006KT 07/M04 A3019 RMK A01 T00691043  RH  045%=      5-min Rain = 0
KGU1 141110Z 06006KT 07/M04 A3019 RMK A01 T00691042  RH  045%=      5-min Rain = 0
KGU1 141111Z 06006KT 07/M04 A3019 RMK A01 T00681042  RH  045%=      5-min Rain = 0
KGU1 141112Z 07007KT 07/M04 A3019 RMK A01 T00681043  RH  045%=      5-min Rain = 0
KGU1 141113Z 07007KT 07/M04 A3019 RMK A01 T00681042  RH  045%=      5-min Rain = 0
KGU1 141114Z 06008KT 07/M04 A3019 RMK A01 T00681042  RH  045%=      5-min Rain = 0
KGU1 141115Z 07006KT 07/M04 A3019 RMK A01 T00701042  RH  045%=      5-min Rain = 0
KGU1 141116Z 07006KT 07/M04 A3019 RMK A01 T00701042  RH  045%=      5-min Rain = 0
KGU1 141117Z 07006KT 07/M04 A3019 RMK A01 T00691042  RH  045%=      5-min Rain = 0
KGU1 141118Z 08007KT 07/M04 A302 RMK A01 T00691042  RH  045%=      5-min Rain = 0
KGU1 141119Z 08007KT 07/M04 A302 RMK A01 T00671043  RH  046%=      5-min Rain = 0
KGU1 141120Z 09007KT 07/M04 A302 RMK A01 T00651043  RH  046%=      5-min Rain = 0
KGU1 141121Z 08008KT 06/M04 A302 RMK A01 T00641043  RH  047%=      5-min Rain = 0
KGU1 141122Z 09008KT 06/M04 A302 RMK A01 T00641043  RH  047%=      5-min Rain = 0
KGU1 141123Z 09008KT 06/M04 A302 RMK A01 T00631042  RH  047%=      5-min Rain = 0
KGU1 141124Z 09007KT 06/M04 A302 RMK A01 T00621042  RH  047%=      5-min Rain = 0
KGU1 141125Z 09008KT 06/M04 A302 RMK A01 T00611043  RH  048%=      5-min Rain = 0
KGU1 141126Z 10007KT 06/M04 A302 RMK A01 T00611043  RH  048%=      5-min Rain = 0
KGU1 141127Z 09008KT 06/M04 A302 RMK A01 T00591043  RH  048%=      5-min Rain = 0
KGU1 141128Z 09007KT 06/M04 A302 RMK A01 T00581044  RH  048%=      5-min Rain = 0
KGU1 141129Z 08008KT 06/M04 A302 RMK A01 T00581044  RH  048%=      5-min Rain = 0
KGU1 141130Z 08008KT 06/M04 A302 RMK A01 T00581044  RH  048%=      5-min Rain = 0
KGU1 141131Z 08008KT 06/M04 A302 RMK A01 T00581044  RH  048%=      5-min Rain = 0
KGU1 141132Z 07008KT 06/M05 A302 RMK A01 T00581045  RH  048%=      5-min Rain = 0
KGU1 141133Z 07007KT 06/M05 A302 RMK A01 T00581045  RH  048%=      5-min Rain = 0
KGU1 141134Z 07006KT 06/M05 A302 RMK A01 T00571045  RH  048%=      5-min Rain = 0
KGU1 141135Z 05005KT 06/M05 A302 RMK A01 T00561045  RH  048%=      5-min Rain = 0
KGU1 141136Z 05005KT 06/M05 A302 RMK A01 T00551046  RH  048%=      5-min Rain = 0
KGU1 141137Z 03004KT 05/M05 A302 RMK A01 T00541046  RH  049%=      5-min Rain = 0
KGU1 141138Z 02003KT 05/M05 A302 RMK A01 T00521046  RH  049%=      5-min Rain = 0
KGU1 141139Z 03003KT 05/M05 A302 RMK A01 T00511046  RH  050%=      5-min Rain = 0
KGU1 141140Z 03003KT 05/M05 A302 RMK A01 T00511046  RH  050%=      5-min Rain = 0
KGU1 141141Z 04003KT 05/M05 A302 RMK A01 T00501046  RH  050%=      5-min Rain = 0
KGU1 141142Z 05003KT 05/M05 A302 RMK A01 T00491046  RH  050%=      5-min Rain = 0
KGU1 141143Z 05003KT 05/M05 A3021 RMK A01 T00481046  RH  051%=      5-min Rain = 0
KGU1 141144Z 06003KT 05/M05 A3021 RMK A01 T00471047  RH  051%=      5-min Rain = 0
KGU1 141145Z 07005KT 05/M05 A3021 RMK A01 T00471046  RH  051%=      5-min Rain = 0
KGU1 141146Z 07006KT 05/M05 A3021 RMK A01 T00481047  RH  051%=      5-min Rain = 0
KGU1 141147Z 06006KT 05/M05 A3021 RMK A01 T00481047  RH  050%=      5-min Rain = 0
KGU1 141148Z 05005KT 05/M05 A3021 RMK A01 T00481048  RH  050%=      5-min Rain = 0
KGU1 141149Z 05005KT 05/M05 A3021 RMK A01 T00461048  RH  051%=      5-min Rain = 0
KGU1 141150Z 04005KT 05/M05 A3021 RMK A01 T00451049  RH  051%=      5-min Rain = 0
KGU1 141151Z 03005KT 04/M05 A3021 RMK A01 T00441049  RH  051%=      5-min Rain = 0
KGU1 141152Z 03005KT 04/M05 A3021 RMK A01 T00431048  RH  052%=      5-min Rain = 0
KGU1 141153Z 02005KT 04/M05 A3021 RMK A01 T00421049  RH  052%=      5-min Rain = 0
KGU1 141154Z 02006KT 04/M05 A3021 RMK A01 T00401049  RH  053%=      5-min Rain = 0
KGU1 141155Z 01005KT 04/M05 A3021 RMK A01 T00391048  RH  053%=      5-min Rain = 0
KGU1 141156Z 01005KT 04/M05 A3021 RMK A01 T00381048  RH  054%=      5-min Rain = 0
KGU1 141157Z 02005KT 04/M05 A3022 RMK A01 T00371048  RH  054%=      5-min Rain = 0
KGU1 141158Z 02005KT 04/M05 A3022 RMK A01 T00371048  RH  054%=      5-min Rain = 0
KGU1 141159Z 03004KT 04/M05 A3022 RMK A01 T00371049  RH  053%=      5-min Rain = 0
KGU1 141200Z 03003KT 04/M05 A3022 RMK A01 T00371049  RH  053%=      5-min Rain = 0
KGU1 141201Z 04003KT 04/M05 A3022 RMK A01 T00371049  RH  053%=      5-min Rain = 0
KGU1 141202Z 04003KT 04/M05 A3022 RMK A01 T00371049  RH  053%=      5-min Rain = 0
KGU1 141203Z 04004KT 04/M05 A3022 RMK A01 T00371050  RH  053%=      5-min Rain = 0
KGU1 141204Z 04005KT 04/M05 A3022 RMK A01 T00371050  RH  053%=      5-min Rain = 0
KGU1 141205Z 04005KT 04/M05 A3022 RMK A01 T00361051  RH  053%=      5-min Rain = 0
KGU1 141206Z 04005KT 04/M05 A3022 RMK A01 T00361051  RH  053%=      5-min Rain = 0
KGU1 141207Z 04005KT 04/M05 A3022 RMK A01 T00351051  RH  053%=      5-min Rain = 0
KGU1 141208Z 04006KT 04/M05 A3022 RMK A01 T00351051  RH  053%=      5-min Rain = 0
KGU1 141209Z 04006KT 03/M05 A3022 RMK A01 T00341051  RH  054%=      5-min Rain = 0
KGU1 141210Z 04006KT 03/M05 A3022 RMK A01 T00341051  RH  054%=      5-min Rain = 0
KGU1 141211Z 03007KT 04/M05 A3022 RMK A01 T00351051  RH  053%=      5-min Rain = 0
KGU1 141212Z 04007KT 04/M05 A3022 RMK A01 T00351052  RH  053%=      5-min Rain = 0
KGU1 141213Z 04006KT 04/M05 A3022 RMK A01 T00361052  RH  053%=      5-min Rain = 0
KGU1 141214Z 03006KT 04/M05 A3022 RMK A01 T00371052  RH  053%=      5-min Rain = 0
KGU1 141215Z 03005KT 04/M05 A3022 RMK A01 T00361051  RH  053%=      5-min Rain = 0
KGU1 141216Z 03006KT 04/M05 A3023 RMK A01 T00361050  RH  053%=      5-min Rain = 0
KGU1 141217Z 03005KT 04/M05 A3023 RMK A01 T00371050  RH  053%=      5-min Rain = 0
KGU1 141218Z 03006KT 04/M05 A3023 RMK A01 T00381051  RH  053%=      5-min Rain = 0
KGU1 141219Z 03005KT 04/M05 A3023 RMK A01 T00391051  RH  052%=      5-min Rain = 0
KGU1 141220Z 03004KT 04/M05 A3023 RMK A01 T00391051  RH  052%=      5-min Rain = 0
KGU1 141221Z 03005KT 04/M05 A3023 RMK A01 T00401050  RH  052%=      5-min Rain = 0
KGU1 141222Z 03005KT 04/M05 A3023 RMK A01 T00401051  RH  052%=      5-min Rain = 0
KGU1 141223Z 02005KT 04/M05 A3023 RMK A01 T00401051  RH  051%=      5-min Rain = 0
KGU1 141224Z 03006KT 04/M05 A3023 RMK A01 T00411052  RH  051%=      5-min Rain = 0
KGU1 141225Z 03006KT 04/M05 A3023 RMK A01 T00421052  RH  050%=      5-min Rain = 0
KGU1 141226Z 04007KT 04/M05 A3023 RMK A01 T00441053  RH  050%=      5-min Rain = 0
KGU1 141227Z 02005KT 04/M05 A3024 RMK A01 T00441053  RH  049%=      5-min Rain = 0
KGU1 141228Z 03007KT 04/M05 A3024 RMK A01 T00441053  RH  050%=      5-min Rain = 0
KGU1 141229Z 03006KT 04/M05 A3024 RMK A01 T00441053  RH  049%=      5-min Rain = 0
KGU1 141230Z 03005KT 04/M05 A3024 RMK A01 T00441052  RH  050%=      5-min Rain = 0
KGU1 141231Z 03007KT 04/M05 A3024 RMK A01 T00441053  RH  049%=      5-min Rain = 0
KGU1 141232Z 03006KT 04/M05 A3024 RMK A01 T00441053  RH  049%=      5-min Rain = 0
KGU1 141233Z 03009KT 04/M05 A3024 RMK A01 T00441054  RH  049%=      5-min Rain = 0
KGU1 141234Z 03008KT 05/M05 A3024 RMK A01 T00461054  RH  048%=      5-min Rain = 0
KGU1 141235Z 03008KT 05/M05 A3024 RMK A01 T00451054  RH  049%=      5-min Rain = 0
KGU1 141236Z 03005KT 05/M05 A3024 RMK A01 T00451054  RH  048%=      5-min Rain = 0
KGU1 141237Z 03005KT 05/M05 A3024 RMK A01 T00451054  RH  049%=      5-min Rain = 0
KGU1 141238Z 03004KT 04/M05 A3024 RMK A01 T00431054  RH  049%=      5-min Rain = 0
KGU1 141239Z 03006KT 04/M05 A3024 RMK A01 T00421054  RH  050%=      5-min Rain = 0
KGU1 141240Z 03006KT 04/M05 A3024 RMK A01 T00411054  RH  050%=      5-min Rain = 0
KGU1 141241Z 03005KT 04/M05 A3024 RMK A01 T00411054  RH  050%=      5-min Rain = 0
KGU1 141242Z 02006KT 04/M06 A3025 RMK A01 T00401055  RH  050%=      5-min Rain = 0
KGU1 141243Z 02006KT 04/M06 A3025 RMK A01 T00401055  RH  050%=      5-min Rain = 0
KGU1 141244Z 02005KT 04/M06 A3025 RMK A01 T00401055  RH  050%=      5-min Rain = 0
KGU1 141245Z 02006KT 04/M06 A3025 RMK A01 T00401055  RH  050%=      5-min Rain = 0
KGU1 141246Z 02006KT 04/M06 A3025 RMK A01 T00401056  RH  050%=      5-min Rain = 0
KGU1 141247Z 02006KT 04/M06 A3025 RMK A01 T00411056  RH  050%=      5-min Rain = 0
KGU1 141248Z 03005KT 04/M06 A3025 RMK A01 T00411056  RH  049%=      5-min Rain = 0
KGU1 141249Z 03004KT 04/M06 A3025 RMK A01 T00421056  RH  049%=      5-min Rain = 0
KGU1 141250Z 02004KT 04/M06 A3025 RMK A01 T00411056  RH  049%=      5-min Rain = 0
KGU1 141251Z 03006KT 04/M06 A3025 RMK A01 T00421056  RH  049%=      5-min Rain = 0
KGU1 141252Z 03007KT 04/M06 A3025 RMK A01 T00421057  RH  049%=      5-min Rain = 0
KGU1 141253Z 02005KT 04/M06 A3025 RMK A01 T00421057  RH  049%=      5-min Rain = 0
KGU1 141254Z 02005KT 04/M06 A3025 RMK A01 T00431056  RH  049%=      5-min Rain = 0
KGU1 141255Z 02005KT 04/M06 A3025 RMK A01 T00421057  RH  049%=      5-min Rain = 0
KGU1 141256Z 02004KT 04/M06 A3025 RMK A01 T00421057  RH  049%=      5-min Rain = 0
KGU1 141257Z 02004KT 04/M06 A3026 RMK A01 T00411057  RH  049%=      5-min Rain = 0
KGU1 141258Z 02004KT 04/M06 A3026 RMK A01 T00411057  RH  049%=      5-min Rain = 0
KGU1 141259Z 03005KT 04/M06 A3026 RMK A01 T00401057  RH  049%=      5-min Rain = 0
KGU1 141300Z 03005KT 04/M06 A3026 RMK A01 T00401057  RH  049%=      5-min Rain = 0
KGU1 141301Z 02005KT 04/M06 A3026 RMK A01 T00401058  RH  049%=      5-min Rain = 0
KGU1 141302Z 02004KT 04/M06 A3026 RMK A01 T00391058  RH  049%=      5-min Rain = 0
KGU1 141303Z 02004KT 04/M06 A3026 RMK A01 T00391058  RH  049%=      5-min Rain = 0
KGU1 141304Z 02004KT 04/M06 A3026 RMK A01 T00381058  RH  050%=      5-min Rain = 0
KGU1 141305Z 03005KT 04/M06 A3026 RMK A01 T00371058  RH  050%=      5-min Rain = 0
KGU1 141306Z 02004KT 04/M06 A3026 RMK A01 T00371058  RH  050%=      5-min Rain = 0
KGU1 141307Z 02004KT 04/M06 A3026 RMK A01 T00371058  RH  050%=      5-min Rain = 0
KGU1 141308Z 03004KT 04/M06 A3026 RMK A01 T00361059  RH  050%=      5-min Rain = 0
KGU1 141309Z 02004KT 04/M06 A3026 RMK A01 T00361059  RH  050%=      5-min Rain = 0
KGU1 141310Z 03005KT 04/M06 A3026 RMK A01 T00361059  RH  050%=      5-min Rain = 0
KGU1 141311Z 02004KT 04/M06 A3026 RMK A01 T00361059  RH  050%=      5-min Rain = 0
KGU1 141312Z 02005KT 04/M06 A3026 RMK A01 T00361059  RH  050%=      5-min Rain = 0
KGU1 141313Z 02005KT 04/M06 A3026 RMK A01 T00361059  RH  050%=      5-min Rain = 0
KGU1 141314Z 02005KT 04/M06 A3026 RMK A01 T00351059  RH  050%=      5-min Rain = 0
KGU1 141315Z 03005KT 04/M06 A3026 RMK A01 T00351059  RH  050%=      5-min Rain = 0
KGU1 141316Z 04005KT 03/M06 A3026 RMK A01 T00341059  RH  051%=      5-min Rain = 0
KGU1 141317Z 03005KT 03/M06 A3026 RMK A01 T00341059  RH  051%=      5-min Rain = 0
KGU1 141318Z 04004KT 03/M06 A3027 RMK A01 T00341059  RH  051%=      5-min Rain = 0
KGU1 141319Z 05004KT 03/M06 A3027 RMK A01 T00331059  RH  051%=      5-min Rain = 0
KGU1 141320Z 05004KT 03/M06 A3027 RMK A01 T00331059  RH  051%=      5-min Rain = 0
KGU1 141321Z 04003KT 03/M06 A3027 RMK A01 T00331059  RH  051%=      5-min Rain = 0
KGU1 141322Z 03002KT 03/M06 A3027 RMK A01 T00331059  RH  051%=      5-min Rain = 0
KGU1 141323Z 04002KT 03/M06 A3027 RMK A01 T00321060  RH  051%=      5-min Rain = 0
KGU1 141324Z 01001KT 03/M06 A3027 RMK A01 T00331059  RH  051%=      5-min Rain = 0
KGU1 141325Z 02001KT 03/M06 A3027 RMK A01 T00331059  RH  051%=      5-min Rain = 0
KGU1 141326Z 03001KT 03/M06 A3027 RMK A01 T00321059  RH  051%=      5-min Rain = 0
KGU1 141327Z 06002KT 03/M06 A3027 RMK A01 T00321060  RH  051%=      5-min Rain = 0
KGU1 141328Z 05002KT 03/M06 A3027 RMK A01 T00341059  RH  051%=      5-min Rain = 0
KGU1 141329Z 05002KT 03/M06 A3027 RMK A01 T00341059  RH  051%=      5-min Rain = 0
KGU1 141330Z 06004KT 03/M06 A3027 RMK A01 T00341059  RH  050%=      5-min Rain = 0
KGU1 141331Z 06006KT 04/M06 A3027 RMK A01 T00351059  RH  050%=      5-min Rain = 0
KGU1 141332Z 06006KT 04/M06 A3027 RMK A01 T00351059  RH  050%=      5-min Rain = 0
KGU1 141333Z 06007KT 04/M06 A3027 RMK A01 T00361059  RH  050%=      5-min Rain = 0
KGU1 141334Z 06007KT 04/M06 A3027 RMK A01 T00371059  RH  050%=      5-min Rain = 0
KGU1 141335Z 05008KT 04/M06 A3028 RMK A01 T00381058  RH  049%=      5-min Rain = 0
KGU1 141336Z 05009KT 04/M06 A3028 RMK A01 T00391058  RH  049%=      5-min Rain = 0
KGU1 141337Z 04009KT 04/M06 A3028 RMK A01 T00411058  RH  049%=      5-min Rain = 0
KGU1 141338Z 05011KT 04/M06 A3028 RMK A01 T00431057  RH  048%=      5-min Rain = 0
KGU1 141339Z 05011KT 04/M06 A3028 RMK A01 T00441058  RH  048%=      5-min Rain = 0
KGU1 141340Z 05010KT 05/M06 A3028 RMK A01 T00451058  RH  047%=      5-min Rain = 0
KGU1 141341Z 05011KT 05/M06 A3028 RMK A01 T00471057  RH  047%=      5-min Rain = 0
KGU1 141342Z 05012KT 05/M06 A3028 RMK A01 T00481057  RH  047%=      5-min Rain = 0
KGU1 141343Z 05010KT 05/M06 A3028 RMK A01 T00491057  RH  046%=      5-min Rain = 0
KGU1 141344Z 05011G16KT 05/M06 A3028 RMK A01 T00491057  RH  046%=      5-min Rain = 0
KGU1 141345Z 04011KT 05/M06 A3028 RMK A01 T00501056  RH  046%=      5-min Rain = 0
KGU1 141346Z 04010KT 05/M06 A3028 RMK A01 T00521056  RH  046%=      5-min Rain = 0
KGU1 141347Z 04010KT 05/M06 A3028 RMK A01 T00531056  RH  045%=      5-min Rain = 0
KGU1 141348Z 04010KT 05/M06 A3029 RMK A01 T00541056  RH  045%=      5-min Rain = 0
KGU1 141349Z 04009KT 06/M06 A3028 RMK A01 T00551056  RH  045%=      5-min Rain = 0
KGU1 141350Z 05007KT 06/M06 A3028 RMK A01 T00551055  RH  045%=      5-min Rain = 0
KGU1 141351Z 05006KT 06/M06 A3028 RMK A01 T00551055  RH  045%=      5-min Rain = 0
KGU1 141352Z 05005KT 06/M06 A3029 RMK A01 T00551055  RH  045%=      5-min Rain = 0
KGU1 141353Z 06007KT 06/M06 A3029 RMK A01 T00551055  RH  045%=      5-min Rain = 0
KGU1 141354Z 06006KT 06/M06 A3029 RMK A01 T00551055  RH  045%=      5-min Rain = 0
KGU1 141355Z 06006KT 06/M06 A3029 RMK A01 T00551055  RH  045%=      5-min Rain = 0
KGU1 141356Z 07007KT 05/M06 A3029 RMK A01 T00541055  RH  045%=      5-min Rain = 0
KGU1 141357Z 07008KT 06/M06 A3029 RMK A01 T00551055  RH  045%=      5-min Rain = 0
KGU1 141358Z 06007KT 06/M06 A3029 RMK A01 T00551055  RH  045%=      5-min Rain = 0
KGU1 141359Z 06008KT 06/M06 A3029 RMK A01 T00551055  RH  045%=      5-min Rain = 0
KGU1 141400Z 06008KT 06/M06 A3029 RMK A01 T00551055  RH  045%=      5-min Rain = 0
KGU1 141401Z 06007KT 06/M06 A3029 RMK A01 T00551055  RH  045%=      5-min Rain = 0
KGU1 141402Z 06008KT 06/M05 A3029 RMK A01 T00551054  RH  045%=      5-min Rain = 0
KGU1 141403Z 06007KT 06/M05 A3029 RMK A01 T00551054  RH  045%=      5-min Rain = 0
KGU1 141404Z 06007KT 06/M05 A3029 RMK A01 T00551054  RH  045%=      5-min Rain = 0
KGU1 141405Z 06009KT 06/M05 A3029 RMK A01 T00551054  RH  045%=      5-min Rain = 0
KGU1 141406Z 05007KT 06/M05 A3029 RMK A01 T00561054  RH  045%=      5-min Rain = 0
KGU1 141407Z 06010KT 06/M05 A3029 RMK A01 T00571054  RH  045%=      5-min Rain = 0
KGU1 141408Z 05009KT 06/M05 A3029 RMK A01 T00581054  RH  045%=      5-min Rain = 0
KGU1 141409Z 06010KT 06/M05 A3029 RMK A01 T00591053  RH  044%=      5-min Rain = 0
KGU1 141410Z 06011KT 06/M05 A303 RMK A01 T00601052  RH  044%=      5-min Rain = 0
KGU1 141411Z 06010KT 06/M05 A303 RMK A01 T00611053  RH  044%=      5-min Rain = 0
KGU1 141412Z 07010KT 06/M05 A303 RMK A01 T00621052  RH  044%=      5-min Rain = 0
KGU1 141413Z 07010KT 06/M05 A303 RMK A01 T00621052  RH  044%=      5-min Rain = 0
KGU1 141414Z 07009KT 06/M05 A303 RMK A01 T00621052  RH  044%=      5-min Rain = 0
KGU1 141415Z 06011KT 06/M05 A303 RMK A01 T00621051  RH  044%=      5-min Rain = 0
KGU1 141416Z 06010KT 06/M05 A303 RMK A01 T00621052  RH  044%=      5-min Rain = 0
KGU1 141417Z 05010KT 06/M05 A303 RMK A01 T00621051  RH  044%=      5-min Rain = 0
KGU1 141418Z 05013KT 06/M05 A303 RMK A01 T00631050  RH  044%=      5-min Rain = 0
KGU1 141419Z 06009KT 06/M05 A303 RMK A01 T00631050  RH  044%=      5-min Rain = 0
KGU1 141420Z 05014KT 06/M05 A303 RMK A01 T00631049  RH  045%=      5-min Rain = 0
KGU1 141421Z 05013KT 06/M05 A303 RMK A01 T00641049  RH  044%=      5-min Rain = 0
KGU1 141422Z 06009KT 06/M05 A303 RMK A01 T00641048  RH  045%=      5-min Rain = 0
KGU1 141423Z 06011KT 06/M05 A303 RMK A01 T00641048  RH  044%=      5-min Rain = 0
KGU1 141424Z 06012KT 06/M05 A303 RMK A01 T00641049  RH  044%=      5-min Rain = 0
KGU1 141425Z 06011G17KT 06/M05 A303 RMK A01 T00641049  RH  044%=      5-min Rain = 0
KGU1 141426Z 05013KT 06/M05 A303 RMK A01 T00641049  RH  044%=      5-min Rain = 0
KGU1 141427Z 06014KT 06/M05 A303 RMK A01 T00641050  RH  044%=      5-min Rain = 0
KGU1 141428Z 05012KT 06/M05 A303 RMK A01 T00641049  RH  044%=      5-min Rain = 0
KGU1 141429Z 05013G18KT 07/M05 A3031 RMK A01 T00651048  RH  044%=      5-min Rain = 0
KGU1 141430Z 05013KT 07/M05 A3031 RMK A01 T00651048  RH  044%=      5-min Rain = 0
KGU1 141431Z 05012KT 07/M05 A3031 RMK A01 T00651048  RH  044%=      5-min Rain = 0
KGU1 141432Z 05012KT 07/M05 A3031 RMK A01 T00661047  RH  044%=      5-min Rain = 0
KGU1 141433Z 06010KT 07/M05 A3031 RMK A01 T00661047  RH  044%=      5-min Rain = 0
KGU1 141434Z 05010G18KT 07/M05 A3031 RMK A01 T00671045  RH  045%=      5-min Rain = 0
KGU1 141435Z 05012KT 07/M05 A3031 RMK A01 T00681046  RH  044%=      5-min Rain = 0
KGU1 141436Z 06010G16KT 07/M05 A3031 RMK A01 T00681046  RH  044%=      5-min Rain = 0
KGU1 141437Z 06012KT 07/M05 A3031 RMK A01 T00681046  RH  044%=      5-min Rain = 0
KGU1 141438Z 05011KT 07/M05 A3031 RMK A01 T00671046  RH  044%=      5-min Rain = 0
KGU1 141439Z 05013KT 07/M05 A3031 RMK A01 T00671045  RH  045%=      5-min Rain = 0
KGU1 141440Z 05013KT 07/M05 A3031 RMK A01 T00671045  RH  045%=      5-min Rain = 0
KGU1 141441Z 05010KT 07/M04 A3031 RMK A01 T00671044  RH  045%=      5-min Rain = 0
KGU1 141442Z 05010KT 07/M04 A3031 RMK A01 T00681043  RH  045%=      5-min Rain = 0
KGU1 141443Z 07012KT 07/M04 A3031 RMK A01 T00691043  RH  045%=      5-min Rain = 0
KGU1 141444Z 06013KT 07/M04 A3031 RMK A01 T00681044  RH  045%=      5-min Rain = 0
KGU1 141445Z 06012KT 07/M04 A3031 RMK A01 T00681044  RH  045%=      5-min Rain = 0
KGU1 141446Z 06013KT 07/M05 A3031 RMK A01 T00681045  RH  045%=      5-min Rain = 0
KGU1 141447Z 05013KT 07/M05 A3032 RMK A01 T00671045  RH  045%=      5-min Rain = 0
KGU1 141448Z 05011KT 07/M04 A3032 RMK A01 T00681044  RH  045%=      5-min Rain = 0
KGU1 141449Z 06009KT 07/M04 A3032 RMK A01 T00691043  RH  045%=      5-min Rain = 0
KGU1 141450Z 06012G17KT 07/M04 A3032 RMK A01 T00701043  RH  045%=      5-min Rain = 0
KGU1 141451Z 05013KT 07/M04 A3032 RMK A01 T00701044  RH  044%=      5-min Rain = 0
KGU1 141452Z 05015KT 07/M04 A3032 RMK A01 T00691044  RH  044%=      5-min Rain = 0
KGU1 141453Z 05014G19KT 07/M04 A3032 RMK A01 T00691043  RH  045%=      5-min Rain = 0
KGU1 141454Z 05016KT 07/M04 A3032 RMK A01 T00681042  RH  045%=      5-min Rain = 0
KGU1 141455Z 05013G18KT 07/M04 A3032 RMK A01 T00681042  RH  046%=      5-min Rain = 0
KGU1 141456Z 05015KT 07/M04 A3032 RMK A01 T00681041  RH  046%=      5-min Rain = 0
KGU1 141457Z 05015KT 07/M04 A3032 RMK A01 T00681042  RH  046%=      5-min Rain = 0
KGU1 141458Z 05012KT 07/M04 A3032 RMK A01 T00691040  RH  046%=      5-min Rain = 0
KGU1 141459Z 06009KT 07/M04 A3032 RMK A01 T00701039  RH  046%=      5-min Rain = 0
KGU1 141500Z 05014KT 07/M04 A3032 RMK A01 T00721038  RH  046%=      5-min Rain = 0
KGU1 141501Z 05014G19KT 07/M04 A3032 RMK A01 T00711039  RH  046%=      5-min Rain = 0
KGU1 141502Z 05012KT 07/M04 A3032 RMK A01 T00701039  RH  046%=      5-min Rain = 0
KGU1 141503Z 05014G19KT 07/M04 A3032 RMK A01 T00701040  RH  046%=      5-min Rain = 0
KGU1 141504Z 05015KT 07/M04 A3032 RMK A01 T00691040  RH  046%=      5-min Rain = 0
KGU1 141505Z 05016KT 07/M04 A3033 RMK A01 T00691040  RH  046%=      5-min Rain = 0
KGU1 141506Z 05014KT 07/M04 A3033 RMK A01 T00691041  RH  046%=      5-min Rain = 0
KGU1 141507Z 05010KT 07/M04 A3033 RMK A01 T00701040  RH  046%=      5-min Rain = 0
KGU1 141508Z 05013KT 07/M04 A3032 RMK A01 T00721039  RH  046%=      5-min Rain = 0
KGU1 141509Z 05013G18KT 07/M04 A3032 RMK A01 T00721039  RH  045%=      5-min Rain = 0
KGU1 141510Z 06013G19KT 07/M04 A3032 RMK A01 T00711038  RH  046%=      5-min Rain = 0
KGU1 141511Z 06014KT 07/M04 A3032 RMK A01 T00711039  RH  046%=      5-min Rain = 0
KGU1 141512Z 06012G17KT 07/M04 A3033 RMK A01 T00701038  RH  046%=      5-min Rain = 0
KGU1 141513Z 06015KT 07/M04 A3033 RMK A01 T00701038  RH  046%=      5-min Rain = 0
KGU1 141514Z 06016KT 07/M04 A3033 RMK A01 T00691039  RH  046%=      5-min Rain = 0
KGU1 141515Z 05016KT 07/M04 A3033 RMK A01 T00691039  RH  046%=      5-min Rain = 0
KGU1 141516Z 05014KT 07/M04 A3033 RMK A01 T00691038  RH  046%=      5-min Rain = 0
KGU1 141517Z 06014KT 07/M04 A3033 RMK A01 T00701039  RH  046%=      5-min Rain = 0
KGU1 141518Z 06014KT 07/M04 A3033 RMK A01 T00711038  RH  046%=      5-min Rain = 0
KGU1 141519Z 06012KT 07/M04 A3033 RMK A01 T00721037  RH  046%=      5-min Rain = 0
KGU1 141520Z 05014KT 07/M04 A3033 RMK A01 T00721039  RH  045%=      5-min Rain = 0
KGU1 141521Z 06012KT 07/M04 A3033 RMK A01 T00721039  RH  045%=      5-min Rain = 0
KGU1 141522Z 07014KT 07/M04 A3033 RMK A01 T00731037  RH  046%=      5-min Rain = 0
KGU1 141523Z 07014KT 07/M04 A3033 RMK A01 T00711038  RH  046%=      5-min Rain = 0
KGU1 141524Z 07013G18KT 07/M04 A3033 RMK A01 T00711038  RH  046%=      5-min Rain = 0
KGU1 141525Z 06012KT 07/M04 A3033 RMK A01 T00711038  RH  046%=      5-min Rain = 0
KGU1 141526Z 07009KT 07/M04 A3033 RMK A01 T00731037  RH  046%=      5-min Rain = 0
KGU1 141527Z 07013G18KT 08/M04 A3033 RMK A01 T00751036  RH  045%=      5-min Rain = 0
KGU1 141528Z 07013KT 08/M04 A3033 RMK A01 T00751038  RH  045%=      5-min Rain = 0
KGU1 141529Z 08013G20KT 08/M04 A3033 RMK A01 T00751037  RH  045%=      5-min Rain = 0
KGU1 141530Z 07014G19KT 07/M04 A3033 RMK A01 T00731038  RH  045%=      5-min Rain = 0
KGU1 141531Z 07014KT 07/M04 A3033 RMK A01 T00731037  RH  046%=      5-min Rain = 0
KGU1 141532Z 07014KT 07/M04 A3033 RMK A01 T00731038  RH  046%=      5-min Rain = 0
KGU1 141533Z 07016KT 07/M04 A3033 RMK A01 T00711040  RH  045%=      5-min Rain = 0
KGU1 141534Z 07016KT 07/M04 A3034 RMK A01 T00701040  RH  046%=      5-min Rain = 0
KGU1 141535Z 07015G20KT 07/M04 A3034 RMK A01 T00701040  RH  046%=      5-min Rain = 0
KGU1 141536Z 08015KT 07/M04 A3033 RMK A01 T00701039  RH  046%=      5-min Rain = 0
KGU1 141537Z 07019G24KT 07/M04 A3034 RMK A01 T00701039  RH  046%=      5-min Rain = 0
KGU1 141538Z 07014KT 07/M04 A3034 RMK A01 T00691039  RH  046%=      5-min Rain = 0
KGU1 141539Z 07017KT 07/M04 A3034 RMK A01 T00691039  RH  046%=      5-min Rain = 0
KGU1 141540Z 06014G19KT 07/M04 A3034 RMK A01 T00681039  RH  047%=      5-min Rain = 0
KGU1 141541Z 06015KT 07/M04 A3034 RMK A01 T00681039  RH  047%=      5-min Rain = 0
KGU1 141542Z 07013G19KT 07/M04 A3034 RMK A01 T00691038  RH  046%=      5-min Rain = 0
KGU1 141543Z 07014KT 07/M04 A3034 RMK A01 T00711039  RH  046%=      5-min Rain = 0
KGU1 141544Z 07016KT 07/M04 A3034 RMK A01 T00701039  RH  046%=      5-min Rain = 0
KGU1 141545Z 07014G19KT 07/M04 A3034 RMK A01 T00691040  RH  046%=      5-min Rain = 0
KGU1 141546Z 07016KT 07/M04 A3034 RMK A01 T00691039  RH  046%=      5-min Rain = 0
KGU1 141547Z 07016G21KT 07/M04 A3034 RMK A01 T00681040  RH  046%=      5-min Rain = 0
KGU1 141548Z 07017KT 07/M04 A3034 RMK A01 T00671041  RH  046%=      5-min Rain = 0
KGU1 141549Z 07016G22KT 07/M04 A3035 RMK A01 T00661041  RH  046%=      5-min Rain = 0
KGU1 141550Z 07014KT 07/M04 A3035 RMK A01 T00671040  RH  047%=      5-min Rain = 0
KGU1 141551Z 07016G21KT 07/M04 A3035 RMK A01 T00661040  RH  047%=      5-min Rain = 0
KGU1 141552Z 06012G17KT 07/M04 A3035 RMK A01 T00661039  RH  047%=      5-min Rain = 0
KGU1 141553Z 07012G17KT 07/M04 A3035 RMK A01 T00681037  RH  047%=      5-min Rain = 0
KGU1 141554Z 06015KT 07/M04 A3035 RMK A01 T00701036  RH  047%=      5-min Rain = 0
KGU1 141555Z 07012G17KT 07/M04 A3035 RMK A01 T00701037  RH  047%=      5-min Rain = 0
KGU1 141556Z 07015KT 07/M04 A3035 RMK A01 T00711038  RH  046%=      5-min Rain = 0
KGU1 141557Z 07012G17KT 07/M04 A3035 RMK A01 T00691039  RH  046%=      5-min Rain = 0
KGU1 141558Z 07013G19KT 07/M04 A3036 RMK A01 T00701037  RH  046%=      5-min Rain = 0
KGU1 141559Z 07014G19KT 07/M04 A3036 RMK A01 T00721037  RH  046%=      5-min Rain = 0
KGU1 141600Z 06017KT 07/M04 A3036 RMK A01 T00701039  RH  046%=      5-min Rain = 0
KGU1 141601Z 05019KT 07/M04 A3036 RMK A01 T00681039  RH  046%=      5-min Rain = 0
KGU1 141602Z 06016G21KT 07/M04 A3036 RMK A01 T00671040  RH  046%=      5-min Rain = 0
KGU1 141603Z 06014G19KT 07/M04 A3036 RMK A01 T00681040  RH  046%=      5-min Rain = 0
KGU1 141604Z 06015KT 07/M04 A3036 RMK A01 T00671041  RH  046%=      5-min Rain = 0
KGU1 141605Z 06017KT 07/M04 A3036 RMK A01 T00671041  RH  046%=      5-min Rain = 0
KGU1 141606Z 07017KT 07/M04 A3036 RMK A01 T00671041  RH  046%=      5-min Rain = 0
KGU1 141607Z 07014G19KT 07/M04 A3036 RMK A01 T00671040  RH  047%=      5-min Rain = 0
KGU1 141608Z 06015KT 07/M04 A3036 RMK A01 T00671040  RH  047%=      5-min Rain = 0
KGU1 141609Z 07015KT 07/M04 A3036 RMK A01 T00671039  RH  047%=      5-min Rain = 0
KGU1 141610Z 06015KT 07/M04 A3036 RMK A01 T00671040  RH  046%=      5-min Rain = 0
KGU1 141611Z 07015KT 07/M04 A3036 RMK A01 T00661042  RH  046%=      5-min Rain = 0
KGU1 141612Z 07015G20KT 07/M04 A3036 RMK A01 T00661041  RH  046%=      5-min Rain = 0
KGU1 141613Z 06017KT 07/M04 A3036 RMK A01 T00661042  RH  046%=      5-min Rain = 0
KGU1 141614Z 06016KT 07/M04 A3036 RMK A01 T00651041  RH  047%=      5-min Rain = 0
KGU1 141615Z 08013KT 07/M04 A3036 RMK A01 T00671040  RH  047%=      5-min Rain = 0
KGU1 141616Z 06017KT 07/M04 A3036 RMK A01 T00681040  RH  046%=      5-min Rain = 0
KGU1 141617Z 06014G19KT 07/M04 A3036 RMK A01 T00671040  RH  047%=      5-min Rain = 0
KGU1 141618Z 07013KT 07/M04 A3036 RMK A01 T00691038  RH  047%=      5-min Rain = 0
KGU1 141619Z 07013KT 07/M04 A3036 RMK A01 T00691039  RH  046%=      5-min Rain = 0
KGU1 141620Z 08013G19KT 07/M04 A3036 RMK A01 T00701037  RH  047%=      5-min Rain = 0
KGU1 141621Z 07014G20KT 07/M04 A3036 RMK A01 T00711038  RH  046%=      5-min Rain = 0
KGU1 141622Z 08013KT 07/M04 A3036 RMK A01 T00711038  RH  046%=      5-min Rain = 0
KGU1 141623Z 06011KT 07/M04 A3036 RMK A01 T00711038  RH  046%=      5-min Rain = 0
KGU1 141624Z 05014KT 07/M04 A3037 RMK A01 T00721037  RH  046%=      5-min Rain = 0
KGU1 141625Z 05012G17KT 07/M04 A3037 RMK A01 T00711038  RH  046%=      5-min Rain = 0
KGU1 141626Z 06013KT 07/M04 A3037 RMK A01 T00721038  RH  046%=      5-min Rain = 0
KGU1 141627Z 06014KT 07/M04 A3037 RMK A01 T00711040  RH  045%=      5-min Rain = 0
KGU1 141628Z 07014KT 07/M04 A3037 RMK A01 T00691041  RH  045%=      5-min Rain = 0
KGU1 141629Z 06011KT 07/M04 A3037 RMK A01 T00691041  RH  046%=      5-min Rain = 0
KGU1 141630Z 06011KT 07/M04 A3037 RMK A01 T00711039  RH  045%=      5-min Rain = 0
KGU1 141631Z 06014KT 07/M04 A3037 RMK A01 T00721039  RH  045%=      5-min Rain = 0
KGU1 141632Z 06015KT 07/M04 A3037 RMK A01 T00711039  RH  045%=      5-min Rain = 0
KGU1 141633Z 06013G18KT 07/M04 A3037 RMK A01 T00701040  RH  045%=      5-min Rain = 0
KGU1 141634Z 07012KT 07/M04 A3037 RMK A01 T00711040  RH  045%=      5-min Rain = 0
KGU1 141635Z 07013KT 07/M04 A3037 RMK A01 T00701040  RH  046%=      5-min Rain = 0
KGU1 141636Z 06015KT 07/M04 A3037 RMK A01 T00701040  RH  046%=      5-min Rain = 0
KGU1 141637Z 05014KT 07/M04 A3037 RMK A01 T00701041  RH  046%=      5-min Rain = 0
KGU1 141638Z 08013KT 07/M04 A3037 RMK A01 T00711040  RH  045%=      5-min Rain = 0
KGU1 141639Z 07015KT 07/M04 A3037 RMK A01 T00721041  RH  045%=      5-min Rain = 0
KGU1 141640Z 06012KT 07/M04 A3037 RMK A01 T00731040  RH  045%=      5-min Rain = 0
KGU1 141641Z 07012KT 07/M04 A3037 RMK A01 T00741040  RH  044%=      5-min Rain = 0
KGU1 141642Z 07014G19KT 07/M04 A3037 RMK A01 T00731041  RH  044%=      5-min Rain = 0
KGU1 141643Z 07015KT 07/M04 A3037 RMK A01 T00711042  RH  045%=      5-min Rain = 0
KGU1 141644Z 07014G19KT 07/M04 A3037 RMK A01 T00701042  RH  045%=      5-min Rain = 0
KGU1 141645Z 07015KT 07/M04 A3037 RMK A01 T00691041  RH  046%=      5-min Rain = 0
KGU1 141646Z 06014KT 07/M04 A3037 RMK A01 T00701039  RH  046%=      5-min Rain = 0
KGU1 141647Z 08015KT 07/M04 A3037 RMK A01 T00711040  RH  045%=      5-min Rain = 0
KGU1 141648Z 07017KT 07/M04 A3037 RMK A01 T00691039  RH  046%=      5-min Rain = 0
KGU1 141649Z 06016KT 07/M04 A3037 RMK A01 T00681039  RH  047%=      5-min Rain = 0
KGU1 141650Z 07011KT 07/M04 A3037 RMK A01 T00681037  RH  047%=      5-min Rain = 0
KGU1 141651Z 06012KT 07/M04 A3037 RMK A01 T00721035  RH  047%=      5-min Rain = 0
KGU1 141652Z 07013G18KT 07/M04 A3037 RMK A01 T00721037  RH  046%=      5-min Rain = 0
KGU1 141653Z 07013KT 07/M04 A3037 RMK A01 T00721036  RH  047%=      5-min Rain = 0
KGU1 141654Z 06015KT 07/M04 A3037 RMK A01 T00711036  RH  047%=      5-min Rain = 0
KGU1 141655Z 07014KT 07/M04 A3037 RMK A01 T00711036  RH  047%=      5-min Rain = 0
KGU1 141656Z 07014KT 07/M04 A3037 RMK A01 T00691036  RH  047%=      5-min Rain = 0
KGU1 141657Z 06014KT 07/M04 A3037 RMK A01 T00701035  RH  047%=      5-min Rain = 0
KGU1 141658Z 05014KT 07/M04 A3037 RMK A01 T00711035  RH  047%=      5-min Rain = 0
KGU1 141659Z 06012KT 07/M04 A3037 RMK A01 T00701036  RH  047%=      5-min Rain = 0
KGU1 141700Z 07015KT 07/M03 A3037 RMK A01 T00721033  RH  047%=      5-min Rain = 0
KGU1 141701Z 08014KT 07/M04 A3037 RMK A01 T00711035  RH  047%=      5-min Rain = 0
KGU1 141702Z 07014KT 07/M03 A3037 RMK A01 T00711034  RH  047%=      5-min Rain = 0
KGU1 141703Z 06014KT 07/M03 A3037 RMK A01 T00711034  RH  047%=      5-min Rain = 0
KGU1 141704Z 07013KT 07/M03 A3037 RMK A01 T00741033  RH  047%=      5-min Rain = 0
KGU1 141705Z 07013KT 07/M04 A3037 RMK A01 T00721035  RH  047%=      5-min Rain = 0
KGU1 141706Z 07013G18KT 07/M04 A3037 RMK A01 T00711035  RH  047%=      5-min Rain = 0
KGU1 141707Z 07011KT 07/M03 A3037 RMK A01 T00741032  RH  047%=      5-min Rain = 0
KGU1 141708Z 07015KT 08/M03 A3037 RMK A01 T00751034  RH  046%=      5-min Rain = 0
KGU1 141709Z 08015KT 07/M04 A3037 RMK A01 T00731036  RH  046%=      5-min Rain = 0
KGU1 141710Z 07015KT 07/M03 A3037 RMK A01 T00721034  RH  047%=      5-min Rain = 0
KGU1 141711Z 06013G19KT 07/M03 A3037 RMK A01 T00721034  RH  047%=      5-min Rain = 0
KGU1 141712Z 07015KT 07/M03 A3037 RMK A01 T00721034  RH  047%=      5-min Rain = 0
KGU1 141713Z 07015KT 07/M03 A3037 RMK A01 T00711034  RH  047%=      5-min Rain = 0
KGU1 141714Z 07014KT 07/M03 A3037 RMK A01 T00711034  RH  048%=      5-min Rain = 0
KGU1 141715Z 07014G19KT 07/M03 A3037 RMK A01 T00711034  RH  048%=      5-min Rain = 0
KGU1 141716Z 07014KT 07/M03 A3037 RMK A01 T00701034  RH  048%=      5-min Rain = 0
KGU1 141717Z 07014KT 07/M03 A3037 RMK A01 T00701034  RH  048%=      5-min Rain = 0
KGU1 141718Z 07009KT 07/M03 A3037 RMK A01 T00701032  RH  048%=      5-min Rain = 0
KGU1 141719Z 06012KT 07/M03 A3037 RMK A01 T00731031  RH  048%=      5-min Rain = 0
KGU1 141720Z 07013G18KT 08/M03 A3038 RMK A01 T00751032  RH  047%=      5-min Rain = 0
KGU1 141721Z 07013G19KT 07/M03 A3037 RMK A01 T00731032  RH  047%=      5-min Rain = 0
KGU1 141722Z 08013G18KT 07/M03 A3037 RMK A01 T00721032  RH  048%=      5-min Rain = 0
KGU1 141723Z 08014KT 07/M03 A3037 RMK A01 T00731032  RH  048%=      5-min Rain = 0
KGU1 141724Z 07016KT 07/M03 A3038 RMK A01 T00711034  RH  047%=      5-min Rain = 0
KGU1 141725Z 08015KT 07/M03 A3038 RMK A01 T00711034  RH  047%=      5-min Rain = 0
KGU1 141726Z 06012KT 07/M03 A3038 RMK A01 T00721034  RH  047%=      5-min Rain = 0
KGU1 141727Z 06010KT 07/M03 A3038 RMK A01 T00731034  RH  047%=      5-min Rain = 0
KGU1 141728Z 07016KT 07/M03 A3038 RMK A01 T00731034  RH  047%=      5-min Rain = 0
KGU1 141729Z 07013KT 07/M04 A3038 RMK A01 T00731035  RH  046%=      5-min Rain = 0
KGU1 141730Z 08012KT 08/M03 A3038 RMK A01 T00751034  RH  046%=      5-min Rain = 0
KGU1 141731Z 08014KT 07/M04 A3038 RMK A01 T00741037  RH  046%=      5-min Rain = 0
KGU1 141732Z 07012KT 07/M04 A3038 RMK A01 T00731036  RH  046%=      5-min Rain = 0
KGU1 141733Z 06013KT 08/M03 A3038 RMK A01 T00751034  RH  046%=      5-min Rain = 0
KGU1 141734Z 07011KT 07/M04 A3038 RMK A01 T00741035  RH  046%=      5-min Rain = 0
KGU1 141735Z 07014KT 07/M04 A3038 RMK A01 T00731036  RH  046%=      5-min Rain = 0
KGU1 141736Z 06012KT 07/M04 A3038 RMK A01 T00711036  RH  047%=      5-min Rain = 0
KGU1 141737Z 07014KT 07/M04 A3038 RMK A01 T00731035  RH  047%=      5-min Rain = 0
KGU1 141738Z 07013KT 07/M04 A3038 RMK A01 T00731036  RH  046%=      5-min Rain = 0
KGU1 141739Z 07012KT 07/M04 A3038 RMK A01 T00741035  RH  046%=      5-min Rain = 0
KGU1 141740Z 08012KT 08/M04 A3038 RMK A01 T00751035  RH  046%=      5-min Rain = 0
KGU1 141741Z 07013G19KT 08/M04 A3038 RMK A01 T00751036  RH  046%=      5-min Rain = 0
KGU1 141742Z 06015KT 07/M04 A3038 RMK A01 T00741036  RH  046%=      5-min Rain = 0
KGU1 141743Z 05013KT 07/M04 A3038 RMK A01 T00721037  RH  046%=      5-min Rain = 0
KGU1 141744Z 06013KT 07/M04 A3038 RMK A01 T00731036  RH  046%=      5-min Rain = 0
KGU1 141745Z 06015KT 07/M04 A3038 RMK A01 T00721037  RH  046%=      5-min Rain = 0
KGU1 141746Z 07015KT 07/M04 A3038 RMK A01 T00711037  RH  046%=      5-min Rain = 0
KGU1 141747Z 08014KT 07/M04 A3037 RMK A01 T00731036  RH  046%=      5-min Rain = 0
KGU1 141748Z 07012KT 07/M04 A3037 RMK A01 T00731037  RH  046%=      5-min Rain = 0
KGU1 141749Z 07013G18KT 08/M04 A3037 RMK A01 T00751035  RH  046%=      5-min Rain = 0
KGU1 141750Z 07013G18KT 08/M04 A3037 RMK A01 T00761037  RH  045%=      5-min Rain = 0
KGU1 141751Z 07015KT 07/M04 A3038 RMK A01 T00721039  RH  045%=      5-min Rain = 0
KGU1 141752Z 07013KT 07/M04 A3037 RMK A01 T00721037  RH  046%=      5-min Rain = 0
KGU1 141753Z 06014KT 08/M04 A3038 RMK A01 T00761035  RH  045%=      5-min Rain = 0
KGU1 141754Z 06014KT 08/M04 A3037 RMK A01 T00771036  RH  045%=      5-min Rain = 0
KGU1 141755Z 06015G21KT 08/M04 A3037 RMK A01 T00751038  RH  045%=      5-min Rain = 0
KGU1 141756Z 07012KT 07/M04 A3037 RMK A01 T00741038  RH  045%=      5-min Rain = 0
KGU1 141757Z 07016KT 07/M04 A3037 RMK A01 T00741038  RH  045%=      5-min Rain = 0
KGU1 141758Z 07013KT 07/M04 A3037 RMK A01 T00731039  RH  045%=      5-min Rain = 0
KGU1 141759Z 06012KT 07/M04 A3037 RMK A01 T00731038  RH  046%=      5-min Rain = 0
KGU1 141800Z 07010G15KT 08/M04 A3037 RMK A01 T00751036  RH  045%=      5-min Rain = 0
KGU1 141801Z 06014KT 08/M04 A3037 RMK A01 T00791036  RH  045%=      5-min Rain = 0
KGU1 141802Z 06013KT 08/M04 A3037 RMK A01 T00791037  RH  044%=      5-min Rain = 0
KGU1 141803Z 07014KT 08/M04 A3037 RMK A01 T00771038  RH  044%=      5-min Rain = 0
KGU1 141804Z 07013KT 08/M04 A3037 RMK A01 T00761038  RH  044%=      5-min Rain = 0
KGU1 141805Z 07014KT 07/M04 A3037 RMK A01 T00741040  RH  045%=      5-min Rain = 0
KGU1 141806Z 06012G17KT 07/M04 A3037 RMK A01 T00731039  RH  045%=      5-min Rain = 0
KGU1 141807Z 06014KT 08/M04 A3037 RMK A01 T00751038  RH  045%=      5-min Rain = 0
KGU1 141808Z 07011KT 08/M04 A3037 RMK A01 T00761037  RH  045%=      5-min Rain = 0
KGU1 141809Z 07013KT 08/M04 A3037 RMK A01 T00771038  RH  044%=      5-min Rain = 0
KGU1 141810Z 07016KT 08/M04 A3037 RMK A01 T00771038  RH  044%=      5-min Rain = 0
KGU1 141811Z 07012KT 08/M04 A3037 RMK A01 T00751040  RH  044%=      5-min Rain = 0
KGU1 141812Z 06012KT 07/M04 A3037 RMK A01 T00741040  RH  045%=      5-min Rain = 0
KGU1 141813Z 06014KT 07/M04 A3037 RMK A01 T00741039  RH  045%=      5-min Rain = 0
KGU1 141814Z 06011G16KT 07/M04 A3037 RMK A01 T00741039  RH  045%=      5-min Rain = 0
KGU1 141815Z 06014KT 08/M04 A3037 RMK A01 T00781037  RH  044%=      5-min Rain = 0
KGU1 141816Z 05014KT 08/M04 A3037 RMK A01 T00771039  RH  044%=      5-min Rain = 0
KGU1 141817Z 06013KT 08/M04 A3037 RMK A01 T00761039  RH  044%=      5-min Rain = 0
KGU1 141818Z 06012KT 08/M04 A3037 RMK A01 T00751039  RH  044%=      5-min Rain = 0
KGU1 141819Z 07013G18KT 08/M04 A3037 RMK A01 T00751038  RH  045%=      5-min Rain = 0
KGU1 141820Z 07015KT 08/M04 A3037 RMK A01 T00751039  RH  044%=      5-min Rain = 0
KGU1 141821Z 07018KT 07/M04 A3036 RMK A01 T00731040  RH  045%=      5-min Rain = 0
KGU1 141822Z 07016KT 07/M04 A3037 RMK A01 T00731039  RH  045%=      5-min Rain = 0
KGU1 141823Z 06014KT 07/M04 A3037 RMK A01 T00721039  RH  045%=      5-min Rain = 0
KGU1 141824Z 06014KT 07/M04 A3037 RMK A01 T00741038  RH  045%=      5-min Rain = 0
KGU1 141825Z 06013KT 08/M04 A3037 RMK A01 T00751039  RH  044%=      5-min Rain = 0
KGU1 141826Z 06014KT 07/M04 A3036 RMK A01 T00731040  RH  045%=      5-min Rain = 0
KGU1 141827Z 07012KT 07/M04 A3036 RMK A01 T00731039  RH  045%=      5-min Rain = 0
KGU1 141828Z 07014KT 08/M04 A3036 RMK A01 T00761037  RH  045%=      5-min Rain = 0
KGU1 141829Z 06015KT 07/M04 A3037 RMK A01 T00741040  RH  044%=      5-min Rain = 0
KGU1 141830Z 06010KT 07/M04 A3037 RMK A01 T00731038  RH  045%=      5-min Rain = 0
KGU1 141831Z 06013G18KT 08/M04 A3037 RMK A01 T00781036  RH  045%=      5-min Rain = 0
KGU1 141832Z 06016G22KT 08/M04 A3037 RMK A01 T00771039  RH  044%=      5-min Rain = 0
KGU1 141833Z 05012KT 08/M04 A3037 RMK A01 T00771037  RH  044%=      5-min Rain = 0
KGU1 141834Z 06013KT 08/M04 A3037 RMK A01 T00791038  RH  044%=      5-min Rain = 0
KGU1 141835Z 06009G15KT 08/M04 A3037 RMK A01 T00781038  RH  044%=      5-min Rain = 0
KGU1 141836Z 07012G17KT 08/M04 A3036 RMK A01 T00831035  RH  044%=      5-min Rain = 0
KGU1 141837Z 07013G18KT 08/M04 A3037 RMK A01 T00821038  RH  043%=      5-min Rain = 0
KGU1 141838Z 07010KT 08/M04 A3037 RMK A01 T00791038  RH  043%=      5-min Rain = 0
KGU1 141839Z 07012G19KT 08/M04 A3036 RMK A01 T00801036  RH  044%=      5-min Rain = 0
KGU1 141840Z 07013KT 08/M04 A3036 RMK A01 T00811038  RH  043%=      5-min Rain = 0
KGU1 141841Z 07014KT 08/M04 A3036 RMK A01 T00801038  RH  043%=      5-min Rain = 0
KGU1 141842Z 06013KT 08/M04 A3037 RMK A01 T00801038  RH  043%=      5-min Rain = 0
KGU1 141843Z 07014G20KT 08/M04 A3036 RMK A01 T00771040  RH  043%=      5-min Rain = 0
KGU1 141844Z 06015G20KT 08/M04 A3037 RMK A01 T00761038  RH  044%=      5-min Rain = 0
KGU1 141845Z 05016KT 08/M04 A3037 RMK A01 T00761038  RH  044%=      5-min Rain = 0
KGU1 141846Z 05013KT 08/M04 A3037 RMK A01 T00751039  RH  045%=      5-min Rain = 0
KGU1 141847Z 06011G16KT 08/M04 A3037 RMK A01 T00761036  RH  045%=      5-min Rain = 0
KGU1 141848Z 07015KT 08/M04 A3036 RMK A01 T00781037  RH  044%=      5-min Rain = 0
KGU1 141849Z 07016G21KT 08/M04 A3036 RMK A01 T00781037  RH  044%=      5-min Rain = 0
KGU1 141850Z 07014G19KT 08/M04 A3036 RMK A01 T00771039  RH  044%=      5-min Rain = 0
KGU1 141851Z 07013KT 08/M04 A3036 RMK A01 T00751038  RH  045%=      5-min Rain = 0
KGU1 141852Z 08016KT 08/M04 A3036 RMK A01 T00751038  RH  045%=      5-min Rain = 0
KGU1 141853Z 07016KT 08/M04 A3036 RMK A01 T00761038  RH  045%=      5-min Rain = 0
KGU1 141854Z 06014KT 08/M04 A3036 RMK A01 T00751038  RH  045%=      5-min Rain = 0
KGU1 141855Z 08014KT 08/M04 A3036 RMK A01 T00761037  RH  045%=      5-min Rain = 0
KGU1 141856Z 06012G19KT 08/M04 A3036 RMK A01 T00761036  RH  045%=      5-min Rain = 0
KGU1 141857Z 07015KT 08/M04 A3036 RMK A01 T00761037  RH  045%=      5-min Rain = 0
KGU1 141858Z 06013KT 08/M04 A3036 RMK A01 T00751038  RH  045%=      5-min Rain = 0
KGU1 141859Z 06014KT 08/M04 A3036 RMK A01 T00761037  RH  045%=      5-min Rain = 0
KGU1 141900Z 06011KT 08/M03 A3036 RMK A01 T00791034  RH  045%=      5-min Rain = 0
KGU1 141901Z 06013KT 08/M04 A3036 RMK A01 T00821035  RH  044%=      5-min Rain = 0
KGU1 141902Z 06012KT 08/M04 A3037 RMK A01 T00811036  RH  044%=      5-min Rain = 0
KGU1 141903Z 06013KT 08/M04 A3037 RMK A01 T00821036  RH  044%=      5-min Rain = 0
KGU1 141904Z 06013KT 08/M04 A3036 RMK A01 T00791037  RH  044%=      5-min Rain = 0
KGU1 141905Z 06011G16KT 08/M04 A3036 RMK A01 T00791037  RH  044%=      5-min Rain = 0
KGU1 141906Z 07010KT 08/M04 A3036 RMK A01 T00791037  RH  044%=      5-min Rain = 0
KGU1 141907Z 07013G21KT 08/M04 A3036 RMK A01 T00811035  RH  044%=      5-min Rain = 0
KGU1 141908Z 07017G22KT 08/M04 A3036 RMK A01 T00801038  RH  043%=      5-min Rain = 0
KGU1 141909Z 08017KT 08/M04 A3036 RMK A01 T00751039  RH  044%=      5-min Rain = 0
KGU1 141910Z 08015KT 08/M04 A3036 RMK A01 T00751038  RH  045%=      5-min Rain = 0
KGU1 141911Z 06016KT 08/M04 A3036 RMK A01 T00771037  RH  045%=      5-min Rain = 0
KGU1 141912Z 07015KT 08/M04 A3036 RMK A01 T00781037  RH  044%=      5-min Rain = 0
KGU1 141913Z 07014KT 08/M04 A3036 RMK A01 T00771038  RH  044%=      5-min Rain = 0
KGU1 141914Z 06013G18KT 08/M04 A3036 RMK A01 T00791036  RH  044%=      5-min Rain = 0
KGU1 141915Z 07012G17KT 08/M04 A3036 RMK A01 T00791038  RH  044%=      5-min Rain = 0
KGU1 141916Z 06014KT 08/M04 A3036 RMK A01 T00771038  RH  044%=      5-min Rain = 0
KGU1 141917Z 06015KT 08/M04 A3036 RMK A01 T00771038  RH  044%=      5-min Rain = 0
KGU1 141918Z 06014KT 08/M04 A3036 RMK A01 T00761038  RH  044%=      5-min Rain = 0
KGU1 141919Z 06015KT 08/M04 A3036 RMK A01 T00761039  RH  044%=      5-min Rain = 0
KGU1 141920Z 05011G16KT 08/M04 A3036 RMK A01 T00761037  RH  045%=      5-min Rain = 0
KGU1 141921Z 06012KT 08/M04 A3036 RMK A01 T00811035  RH  044%=      5-min Rain = 0
KGU1 141922Z 07013G18KT 08/M04 A3036 RMK A01 T00821037  RH  043%=      5-min Rain = 0
KGU1 141923Z 07011G17KT 08/M04 A3036 RMK A01 T00801038  RH  043%=      5-min Rain = 0
KGU1 141924Z 07011G18KT 08/M04 A3036 RMK A01 T00811036  RH  044%=      5-min Rain = 0
KGU1 141925Z 06015KT 08/M04 A3036 RMK A01 T00801038  RH  043%=      5-min Rain = 0
KGU1 141926Z 06010KT 08/M04 A3036 RMK A01 T00791037  RH  044%=      5-min Rain = 0
KGU1 141927Z 06012KT 08/M04 A3036 RMK A01 T00821035  RH  044%=      5-min Rain = 0
KGU1 141928Z 06012KT 08/M04 A3036 RMK A01 T00821038  RH  043%=      5-min Rain = 0
KGU1 141929Z 06012KT 08/M04 A3036 RMK A01 T00801038  RH  043%=      5-min Rain = 0
KGU1 141930Z 08013KT 08/M04 A3036 RMK A01 T00801037  RH  044%=      5-min Rain = 0
KGU1 141931Z 07014KT 08/M04 A3036 RMK A01 T00791038  RH  044%=      5-min Rain = 0
KGU1 141932Z 06013G18KT 08/M04 A3036 RMK A01 T00791037  RH  044%=      5-min Rain = 0
KGU1 141933Z 05013KT 08/M04 A3036 RMK A01 T00801037  RH  043%=      5-min Rain = 0
KGU1 141934Z 06012KT 08/M04 A3036 RMK A01 T00801037  RH  043%=      5-min Rain = 0
KGU1 141935Z 07015G20KT 08/M04 A3036 RMK A01 T00821037  RH  043%=      5-min Rain = 0
KGU1 141936Z 07015KT 08/M04 A3035 RMK A01 T00801038  RH  043%=      5-min Rain = 0
KGU1 141937Z 05014KT 08/M04 A3036 RMK A01 T00801037  RH  044%=      5-min Rain = 0
KGU1 141938Z 04013KT 08/M04 A3036 RMK A01 T00811037  RH  043%=      5-min Rain = 0
KGU1 141939Z 04012G17KT 08/M04 A3036 RMK A01 T00811037  RH  043%=      5-min Rain = 0
KGU1 141940Z 06011KT 08/M04 A3036 RMK A01 T00831036  RH  043%=      5-min Rain = 0
KGU1 141941Z 07012G17KT 09/M04 A3036 RMK A01 T00851035  RH  043%=      5-min Rain = 0
KGU1 141942Z 08016KT 08/M04 A3035 RMK A01 T00831038  RH  043%=      5-min Rain = 0
KGU1 141943Z 06013G19KT 08/M04 A3036 RMK A01 T00811037  RH  043%=      5-min Rain = 0
KGU1 141944Z 06013KT 08/M04 A3036 RMK A01 T00801037  RH  044%=      5-min Rain = 0
KGU1 141945Z 07014G19KT 08/M04 A3036 RMK A01 T00791038  RH  044%=      5-min Rain = 0
KGU1 141946Z 06014KT 08/M04 A3036 RMK A01 T00781038  RH  044%=      5-min Rain = 0
KGU1 141947Z 07012G18KT 08/M04 A3035 RMK A01 T00781037  RH  044%=      5-min Rain = 0
KGU1 141948Z 06012KT 08/M04 A3035 RMK A01 T00791038  RH  044%=      5-min Rain = 0
KGU1 141949Z 07012G18KT 08/M04 A3035 RMK A01 T00801037  RH  044%=      5-min Rain = 0
KGU1 141950Z 06012KT 08/M04 A3036 RMK A01 T00821037  RH  043%=      5-min Rain = 0
KGU1 141951Z 07013KT 08/M04 A3035 RMK A01 T00811038  RH  043%=      5-min Rain = 0
KGU1 141952Z 06014KT 08/M04 A3036 RMK A01 T00801038  RH  043%=      5-min Rain = 0
KGU1 141953Z 06011KT 08/M04 A3036 RMK A01 T00791038  RH  044%=      5-min Rain = 0
KGU1 141954Z 07014KT 08/M04 A3036 RMK A01 T00781038  RH  044%=      5-min Rain = 0
KGU1 141955Z 07010KT 08/M04 A3036 RMK A01 T00781038  RH  044%=      5-min Rain = 0
KGU1 141956Z 06013KT 08/M04 A3036 RMK A01 T00791036  RH  044%=      5-min Rain = 0
KGU1 141957Z 06013KT 08/M04 A3036 RMK A01 T00801036  RH  044%=      5-min Rain = 0
KGU1 141958Z 06015G22KT 08/M04 A3036 RMK A01 T00811036  RH  044%=      5-min Rain = 0
KGU1 141959Z 05014G19KT 08/M04 A3036 RMK A01 T00791037  RH  044%=      5-min Rain = 0
KGU1 142000Z 05012KT 08/M04 A3036 RMK A01 T00811035  RH  044%=      5-min Rain = 0
KGU1 142001Z 07009G14KT 09/M03 A3036 RMK A01 T00851033  RH  043%=      5-min Rain = 0
KGU1 142002Z 06014KT 09/M04 A3036 RMK A01 T00861035  RH  043%=      5-min Rain = 0
KGU1 142003Z 06011KT 08/M04 A3036 RMK A01 T00831037  RH  043%=      5-min Rain = 0
KGU1 142004Z 07011KT 08/M04 A3036 RMK A01 T00811037  RH  043%=      5-min Rain = 0
KGU1 142005Z 07014KT 08/M04 A3036 RMK A01 T00821036  RH  043%=      5-min Rain = 0
KGU1 142006Z 07012KT 08/M04 A3035 RMK A01 T00831036  RH  043%=      5-min Rain = 0
KGU1 142007Z 08011KT 08/M04 A3035 RMK A01 T00821038  RH  043%=      5-min Rain = 0
KGU1 142008Z 08012KT 08/M04 A3035 RMK A01 T00821036  RH  043%=      5-min Rain = 0
KGU1 142009Z 08015KT 08/M04 A3035 RMK A01 T00821037  RH  043%=      5-min Rain = 0
KGU1 142010Z 07015KT 08/M04 A3035 RMK A01 T00791038  RH  044%=      5-min Rain = 0
KGU1 142011Z 07014KT 08/M04 A3035 RMK A01 T00781037  RH  044%=      5-min Rain = 0
KGU1 142012Z 06012KT 08/M04 A3036 RMK A01 T00791037  RH  044%=      5-min Rain = 0
KGU1 142013Z 06011KT 08/M04 A3036 RMK A01 T00791036  RH  044%=      5-min Rain = 0
KGU1 142014Z 06012KT 08/M04 A3036 RMK A01 T00821035  RH  044%=      5-min Rain = 0
KGU1 142015Z 07010KT 08/M04 A3035 RMK A01 T00821036  RH  043%=      5-min Rain = 0
KGU1 142016Z 05013KT 08/M03 A3035 RMK A01 T00831034  RH  043%=      5-min Rain = 0
KGU1 142017Z 05016KT 08/M04 A3035 RMK A01 T00811037  RH  043%=      5-min Rain = 0
KGU1 142018Z 05013KT 08/M04 A3035 RMK A01 T00791037  RH  044%=      5-min Rain = 0
KGU1 142019Z 06014KT 08/M04 A3035 RMK A01 T00791036  RH  044%=      5-min Rain = 0
KGU1 142020Z 06015KT 08/M04 A3035 RMK A01 T00791036  RH  044%=      5-min Rain = 0
KGU1 142021Z 06012KT 08/M04 A3035 RMK A01 T00801035  RH  044%=      5-min Rain = 0
KGU1 142022Z 07013KT 08/M04 A3035 RMK A01 T00831035  RH  044%=      5-min Rain = 0
KGU1 142023Z 05012KT 08/M04 A3035 RMK A01 T00811037  RH  043%=      5-min Rain = 0
KGU1 142024Z 04010KT 08/M04 A3035 RMK A01 T00811035  RH  044%=      5-min Rain = 0
KGU1 142025Z 05013G18KT 08/M04 A3035 RMK A01 T00821035  RH  044%=      5-min Rain = 0
KGU1 142026Z 06012KT 08/M04 A3035 RMK A01 T00801036  RH  044%=      5-min Rain = 0
KGU1 142027Z 06010KT 08/M03 A3035 RMK A01 T00821034  RH  044%=      5-min Rain = 0
KGU1 142028Z 06011KT 08/M03 A3035 RMK A01 T00831034  RH  044%=      5-min Rain = 0
KGU1 142029Z 06013KT 08/M04 A3035 RMK A01 T00831035  RH  043%=      5-min Rain = 0
KGU1 142030Z 06014KT 08/M04 A3035 RMK A01 T00811036  RH  044%=      5-min Rain = 0
KGU1 142031Z 05013KT 08/M04 A3035 RMK A01 T00801036  RH  044%=      5-min Rain = 0
KGU1 142032Z 05013KT 08/M04 A3035 RMK A01 T00801036  RH  044%=      5-min Rain = 0
KGU1 142033Z 06013KT 08/M04 A3035 RMK A01 T00801036  RH  044%=      5-min Rain = 0
KGU1 142034Z 07013KT 08/M04 A3034 RMK A01 T00801036  RH  044%=      5-min Rain = 0
KGU1 142035Z 06012KT 08/M03 A3035 RMK A01 T00821034  RH  044%=      5-min Rain = 0
KGU1 142036Z 06012KT 08/M04 A3035 RMK A01 T00841036  RH  043%=      5-min Rain = 0
KGU1 142037Z 06013KT 08/M04 A3035 RMK A01 T00841036  RH  043%=      5-min Rain = 0
KGU1 142038Z 06015KT 08/M04 A3035 RMK A01 T00841036  RH  043%=      5-min Rain = 0
KGU1 142039Z 05013G18KT 08/M04 A3035 RMK A01 T00831037  RH  043%=      5-min Rain = 0
KGU1 142040Z 05012KT 08/M04 A3035 RMK A01 T00841036  RH  043%=      5-min Rain = 0
KGU1 142041Z 06014KT 08/M04 A3035 RMK A01 T00831038  RH  042%=      5-min Rain = 0
KGU1 142042Z 06010KT 08/M04 A3035 RMK A01 T00821038  RH  043%=      5-min Rain = 0
KGU1 142043Z 06008G13KT 09/M04 A3035 RMK A01 T00851036  RH  042%=      5-min Rain = 0
KGU1 142044Z 06011KT 09/M04 A3035 RMK A01 T00881035  RH  042%=      5-min Rain = 0
KGU1 142045Z 07013KT 09/M04 A3035 RMK A01 T00871036  RH  042%=      5-min Rain = 0
KGU1 142046Z 07012KT 09/M04 A3035 RMK A01 T00851038  RH  042%=      5-min Rain = 0
KGU1 142047Z 07011KT 08/M04 A3035 RMK A01 T00821037  RH  043%=      5-min Rain = 0
KGU1 142048Z 05012KT 08/M04 A3035 RMK A01 T00841035  RH  043%=      5-min Rain = 0
KGU1 142049Z 04013G19KT 09/M04 A3035 RMK A01 T00861036  RH  042%=      5-min Rain = 0
KGU1 142050Z 05014KT 09/M04 A3035 RMK A01 T00851037  RH  042%=      5-min Rain = 0
KGU1 142051Z 04015KT 09/M04 A3035 RMK A01 T00851037  RH  042%=      5-min Rain = 0
KGU1 142052Z 06013G18KT 08/M04 A3035 RMK A01 T00831037  RH  043%=      5-min Rain = 0
KGU1 142053Z 07014KT 09/M04 A3035 RMK A01 T00851036  RH  043%=      5-min Rain = 0
KGU1 142054Z 07016KT 08/M04 A3035 RMK A01 T00831039  RH  042%=      5-min Rain = 0
KGU1 142055Z 07013KT 08/M04 A3035 RMK A01 T00801039  RH  043%=      5-min Rain = 0
KGU1 142056Z 07011KT 08/M04 A3035 RMK A01 T00811037  RH  043%=      5-min Rain = 0
KGU1 142057Z 06011KT 08/M04 A3035 RMK A01 T00831038  RH  043%=      5-min Rain = 0
KGU1 142058Z 06011KT 08/M04 A3035 RMK A01 T00841037  RH  043%=      5-min Rain = 0
KGU1 142059Z 06012KT 08/M04 A3035 RMK A01 T00841038  RH  042%=      5-min Rain = 0
KGU1 142100Z 05015KT 08/M04 A3035 RMK A01 T00841038  RH  042%=      5-min Rain = 0
KGU1 142101Z 04012KT 08/M04 A3035 RMK A01 T00831038  RH  042%=      5-min Rain = 0
KGU1 142102Z 06012KT 08/M04 A3035 RMK A01 T00841037  RH  042%=      5-min Rain = 0
KGU1 142103Z 06014KT 08/M04 A3035 RMK A01 T00841039  RH  042%=      5-min Rain = 0
KGU1 142104Z 07012KT 08/M04 A3035 RMK A01 T00821039  RH  042%=      5-min Rain = 0
KGU1 142105Z 08012KT 08/M04 A3035 RMK A01 T00831040  RH  042%=      5-min Rain = 0
KGU1 142106Z 08011KT 08/M04 A3035 RMK A01 T00821040  RH  042%=      5-min Rain = 0
KGU1 142107Z 07012KT 08/M04 A3035 RMK A01 T00821041  RH  042%=      5-min Rain = 0
KGU1 142108Z 07013KT 08/M04 A3035 RMK A01 T00831040  RH  042%=      5-min Rain = 0
KGU1 142109Z 07013KT 08/M04 A3035 RMK A01 T00821043  RH  041%=      5-min Rain = 0
KGU1 142110Z 06011KT 08/M04 A3035 RMK A01 T00811043  RH  041%=      5-min Rain = 0
KGU1 142111Z 06010KT 08/M04 A3035 RMK A01 T00821042  RH  042%=      5-min Rain = 0
KGU1 142112Z 07012G17KT 08/M04 A3035 RMK A01 T00841041  RH  041%=      5-min Rain = 0
KGU1 142113Z 07012KT 08/M04 A3035 RMK A01 T00841042  RH  041%=      5-min Rain = 0
KGU1 142114Z 06014KT 08/M04 A3036 RMK A01 T00841042  RH  041%=      5-min Rain = 0
KGU1 142115Z 06011KT 08/M04 A3035 RMK A01 T00831042  RH  041%=      5-min Rain = 0
KGU1 142116Z 07012KT 08/M04 A3035 RMK A01 T00831042  RH  041%=      5-min Rain = 0
KGU1 142117Z 05013KT 08/M04 A3035 RMK A01 T00841041  RH  041%=      5-min Rain = 0
KGU1 142118Z 04013KT 08/M04 A3035 RMK A01 T00831042  RH  041%=      5-min Rain = 0
KGU1 142119Z 06012KT 08/M04 A3035 RMK A01 T00831042  RH  041%=      5-min Rain = 0
KGU1 142120Z 07012KT 08/M04 A3035 RMK A01 T00831043  RH  041%=      5-min Rain = 0
KGU1 142121Z 06011KT 08/M04 A3035 RMK A01 T00831044  RH  041%=      5-min Rain = 0
KGU1 142122Z 06012KT 08/M04 A3035 RMK A01 T00831043  RH  041%=      5-min Rain = 0
KGU1 142123Z 05011KT 09/M04 A3036 RMK A01 T00851043  RH  040%=      5-min Rain = 0
KGU1 142124Z 06011KT 09/M04 A3036 RMK A01 T00861044  RH  040%=      5-min Rain = 0
KGU1 142125Z 07009G14KT 08/M05 A3035 RMK A01 T00841046  RH  040%=      5-min Rain = 0
KGU1 142126Z 06010G16KT 08/M04 A3036 RMK A01 T00841044  RH  040%=      5-min Rain = 0
KGU1 142127Z 05012KT 09/M04 A3036 RMK A01 T00851044  RH  040%=      5-min Rain = 0
KGU1 142128Z 05013KT 08/M05 A3036 RMK A01 T00831045  RH  040%=      5-min Rain = 0
KGU1 142129Z 05012KT 08/M05 A3036 RMK A01 T00811045  RH  041%=      5-min Rain = 0
KGU1 142130Z 06012KT 08/M05 A3036 RMK A01 T00811045  RH  041%=      5-min Rain = 0
KGU1 142131Z 07011G16KT 08/M04 A3036 RMK A01 T00801044  RH  041%=      5-min Rain = 0
KGU1 142132Z 06012KT 08/M04 A3036 RMK A01 T00811043  RH  041%=      5-min Rain = 0
KGU1 142133Z 05012KT 08/M04 A3036 RMK A01 T00811044  RH  041%=      5-min Rain = 0
KGU1 142134Z 06012G17KT 08/M05 A3036 RMK A01 T00791045  RH  041%=      5-min Rain = 0
KGU1 142135Z 05013KT 08/M04 A3036 RMK A01 T00801042  RH  042%=      5-min Rain = 0
KGU1 142136Z 05011KT 08/M04 A3036 RMK A01 T00791044  RH  042%=      5-min Rain = 0
KGU1 142137Z 08009KT 08/M04 A3036 RMK A01 T00801041  RH  042%=      5-min Rain = 0
KGU1 142138Z 06012KT 08/M04 A3036 RMK A01 T00821041  RH  042%=      5-min Rain = 0
KGU1 142139Z 06012KT 08/M04 A3036 RMK A01 T00821042  RH  041%=      5-min Rain = 0
KGU1 142140Z 06013KT 08/M04 A3036 RMK A01 T00801043  RH  042%=      5-min Rain = 0
KGU1 142141Z 04013KT 08/M04 A3036 RMK A01 T00801042  RH  042%=      5-min Rain = 0
KGU1 142142Z 04010KT 08/M04 A3036 RMK A01 T00801041  RH  042%=      5-min Rain = 0
KGU1 142143Z 05014KT 08/M04 A3036 RMK A01 T00811041  RH  042%=      5-min Rain = 0
KGU1 142144Z 07012KT 08/M04 A3036 RMK A01 T00801041  RH  042%=      5-min Rain = 0
KGU1 142145Z 06009KT 08/M04 A3036 RMK A01 T00811041  RH  042%=      5-min Rain = 0
KGU1 142146Z 07009KT 08/M04 A3036 RMK A01 T00811040  RH  042%=      5-min Rain = 0
KGU1 142147Z 07010KT 08/M04 A3036 RMK A01 T00821040  RH  042%=      5-min Rain = 0
KGU1 142148Z 07010KT 08/M04 A3036 RMK A01 T00831040  RH  042%=      5-min Rain = 0
KGU1 142149Z 06012G18KT 08/M04 A3036 RMK A01 T00841040  RH  042%=      5-min Rain = 0
KGU1 142150Z 06012KT 08/M04 A3036 RMK A01 T00831041  RH  042%=      5-min Rain = 0
KGU1 142151Z 07012KT 08/M04 A3036 RMK A01 T00831041  RH  042%=      5-min Rain = 0
KGU1 142152Z 05011KT 08/M04 A3036 RMK A01 T00811041  RH  042%=      5-min Rain = 0
KGU1 142153Z 05013KT 08/M04 A3036 RMK A01 T00821040  RH  042%=      5-min Rain = 0
KGU1 142154Z 05011KT 08/M04 A3036 RMK A01 T00811042  RH  042%=      5-min Rain = 0
KGU1 142155Z 05012KT 08/M04 A3036 RMK A01 T00791041  RH  043%=      5-min Rain = 0
KGU1 142156Z 08011KT 08/M04 A3036 RMK A01 T00801039  RH  043%=      5-min Rain = 0
KGU1 142157Z 07010KT 08/M04 A3036 RMK A01 T00801041  RH  042%=      5-min Rain = 0
KGU1 142158Z 07011KT 08/M04 A3036 RMK A01 T00791041  RH  043%=      5-min Rain = 0
KGU1 142159Z 06010KT 08/M04 A3036 RMK A01 T00801040  RH  043%=      5-min Rain = 0
KGU1 142200Z 05010KT 08/M04 A3036 RMK A01 T00811041  RH  042%=      5-min Rain = 0
KGU1 142201Z 05011KT 08/M04 A3036 RMK A01 T00831041  RH  042%=      5-min Rain = 0
KGU1 142202Z 05010G15KT 08/M04 A3036 RMK A01 T00811042  RH  042%=      5-min Rain = 0
KGU1 142203Z 05010KT 08/M04 A3036 RMK A01 T00821040  RH  042%=      5-min Rain = 0
KGU1 142204Z 04013KT 08/M04 A3036 RMK A01 T00811041  RH  042%=      5-min Rain = 0
KGU1 142205Z 04010KT 08/M04 A3036 RMK A01 T00811039  RH  043%=      5-min Rain = 0
KGU1 142206Z 05008KT 08/M04 A3036 RMK A01 T00821038  RH  043%=      5-min Rain = 0
KGU1 142207Z 04013KT 08/M04 A3037 RMK A01 T00831037  RH  043%=      5-min Rain = 0
KGU1 142208Z 04011KT 08/M04 A3037 RMK A01 T00831037  RH  043%=      5-min Rain = 0
KGU1 142209Z 04011KT 08/M04 A3037 RMK A01 T00821037  RH  043%=      5-min Rain = 0
KGU1 142210Z 03011KT 08/M04 A3037 RMK A01 T00811037  RH  043%=      5-min Rain = 0
KGU1 142211Z 06010KT 08/M04 A3036 RMK A01 T00801037  RH  044%=      5-min Rain = 0
KGU1 142212Z 07011KT 08/M04 A3036 RMK A01 T00801037  RH  043%=      5-min Rain = 0
KGU1 142213Z 07011KT 08/M04 A3036 RMK A01 T00801038  RH  043%=      5-min Rain = 0
KGU1 142214Z 07010KT 08/M04 A3036 RMK A01 T00791038  RH  043%=      5-min Rain = 0
KGU1 142215Z 07009KT 08/M04 A3036 RMK A01 T00791038  RH  043%=      5-min Rain = 0
KGU1 142216Z 07007KT 08/M04 A3036 RMK A01 T00811037  RH  043%=      5-min Rain = 0
KGU1 142217Z 07009KT 08/M04 A3036 RMK A01 T00831037  RH  043%=      5-min Rain = 0
KGU1 142218Z 07013KT 08/M04 A3036 RMK A01 T00821038  RH  043%=      5-min Rain = 0
KGU1 142219Z 06011KT 08/M04 A3037 RMK A01 T00801039  RH  043%=      5-min Rain = 0
KGU1 142220Z 06010KT 08/M04 A3037 RMK A01 T00801039  RH  043%=      5-min Rain = 0
KGU1 142221Z 05011KT 08/M04 A3037 RMK A01 T00791039  RH  043%=      5-min Rain = 0
KGU1 142222Z 05008KT 08/M04 A3037 RMK A01 T00801038  RH  043%=      5-min Rain = 0
KGU1 142223Z 04008KT 08/M04 A3037 RMK A01 T00811038  RH  043%=      5-min Rain = 0
KGU1 142224Z 05010KT 08/M04 A3037 RMK A01 T00811037  RH  043%=      5-min Rain = 0
KGU1 142225Z 06010KT 08/M04 A3037 RMK A01 T00811036  RH  044%=      5-min Rain = 0
KGU1 142226Z 07010KT 08/M04 A3037 RMK A01 T00791036  RH  044%=      5-min Rain = 0
KGU1 142227Z 07009KT 08/M04 A3037 RMK A01 T00781036  RH  045%=      5-min Rain = 0
KGU1 142228Z 06011KT 08/M04 A3037 RMK A01 T00791035  RH  045%=      5-min Rain = 0
KGU1 142229Z 05012KT 08/M04 A3037 RMK A01 T00801035  RH  044%=      5-min Rain = 0
KGU1 142230Z 05012KT 08/M04 A3037 RMK A01 T00791037  RH  044%=      5-min Rain = 0
KGU1 142231Z 06010KT 08/M04 A3037 RMK A01 T00781038  RH  044%=      5-min Rain = 0
KGU1 142232Z 05008G13KT 08/M04 A3037 RMK A01 T00781037  RH  044%=      5-min Rain = 0
KGU1 142233Z 05007KT 08/M04 A3037 RMK A01 T00791035  RH  045%=      5-min Rain = 0
KGU1 142234Z 05008KT 08/M03 A3037 RMK A01 T00801034  RH  045%=      5-min Rain = 0
KGU1 142235Z 06007KT 08/M03 A3037 RMK A01 T00811033  RH  045%=      5-min Rain = 0
KGU1 142236Z 07009KT 08/M03 A3037 RMK A01 T00821033  RH  044%=      5-min Rain = 0
KGU1 142237Z 06011KT 08/M03 A3037 RMK A01 T00821033  RH  045%=      5-min Rain = 0
KGU1 142238Z 07009KT 08/M03 A3037 RMK A01 T00791034  RH  045%=      5-min Rain = 0
KGU1 142239Z 07009KT 08/M03 A3037 RMK A01 T00791032  RH  045%=      5-min Rain = 0
KGU1 142240Z 07009KT 08/M03 A3037 RMK A01 T00791034  RH  045%=      5-min Rain = 0
KGU1 142241Z 06010KT 08/M03 A3037 RMK A01 T00791034  RH  045%=      5-min Rain = 0
KGU1 142242Z 06010KT 08/M04 A3037 RMK A01 T00781035  RH  045%=      5-min Rain = 0
KGU1 142243Z 07009KT 08/M03 A3037 RMK A01 T00771034  RH  045%=      5-min Rain = 0
KGU1 142244Z 05011KT 08/M04 A3037 RMK A01 T00771035  RH  045%=      5-min Rain = 0
KGU1 142245Z 05011KT 08/M03 A3037 RMK A01 T00771034  RH  046%=      5-min Rain = 0
KGU1 142246Z 04008KT 08/M03 A3037 RMK A01 T00761034  RH  046%=      5-min Rain = 0
KGU1 142247Z 06008KT 08/M03 A3037 RMK A01 T00771034  RH  046%=      5-min Rain = 0
KGU1 142248Z 08009KT 08/M03 A3037 RMK A01 T00771034  RH  045%=      5-min Rain = 0
KGU1 142249Z 07010KT 08/M04 A3037 RMK A01 T00771035  RH  045%=      5-min Rain = 0
KGU1 142250Z 07008KT 08/M03 A3037 RMK A01 T00771034  RH  045%=      5-min Rain = 0
KGU1 142251Z 07011KT 08/M03 A3037 RMK A01 T00771034  RH  045%=      5-min Rain = 0
KGU1 142252Z 07009KT 08/M03 A3037 RMK A01 T00761034  RH  046%=      5-min Rain = 0
KGU1 142253Z 06009KT 08/M03 A3037 RMK A01 T00761034  RH  046%=      5-min Rain = 0
KGU1 142254Z 05009KT 08/M03 A3037 RMK A01 T00761033  RH  046%=      5-min Rain = 0
KGU1 142255Z 05010KT 08/M03 A3037 RMK A01 T00761033  RH  046%=      5-min Rain = 0
KGU1 142256Z 05008KT 08/M03 A3037 RMK A01 T00761033  RH  046%=      5-min Rain = 0
KGU1 142257Z 05008KT 08/M03 A3037 RMK A01 T00761033  RH  046%=      5-min Rain = 0
KGU1 142258Z 05010KT 08/M03 A3037 RMK A01 T00761034  RH  046%=      5-min Rain = 0
KGU1 142259Z 04009KT 08/M04 A3037 RMK A01 T00761035  RH  046%=      5-min Rain = 0
KGU1 142300Z 05009KT 08/M04 A3037 RMK A01 T00751035  RH  046%=      5-min Rain = 0
KGU1 142301Z 06008KT 08/M03 A3037 RMK A01 T00751034  RH  046%=      5-min Rain = 0
KGU1 142302Z 05007KT 08/M03 A3037 RMK A01 T00751033  RH  046%=      5-min Rain = 0
KGU1 142303Z 06007KT 08/M03 A3037 RMK A01 T00761033  RH  046%=      5-min Rain = 0
KGU1 142304Z 06008KT 08/M03 A3037 RMK A01 T00761033  RH  046%=      5-min Rain = 0
KGU1 142305Z 05009KT 08/M03 A3037 RMK A01 T00751033  RH  046%=      5-min Rain = 0
KGU1 142306Z 05007KT 07/M03 A3037 RMK A01 T00741033  RH  047%=      5-min Rain = 0
KGU1 142307Z 06009KT 07/M03 A3037 RMK A01 T00741033  RH  047%=      5-min Rain = 0
KGU1 142308Z 05010KT 07/M03 A3037 RMK A01 T00741032  RH  047%=      5-min Rain = 0
KGU1 142309Z 05009KT 07/M03 A3037 RMK A01 T00731032  RH  048%=      5-min Rain = 0
KGU1 142310Z 06009KT 07/M03 A3037 RMK A01 T00731031  RH  048%=      5-min Rain = 0
KGU1 142311Z 06009KT 07/M03 A3037 RMK A01 T00731032  RH  048%=      5-min Rain = 0
KGU1 142312Z 06008KT 07/M03 A3037 RMK A01 T00721032  RH  048%=      5-min Rain = 0
KGU1 142313Z 06009KT 07/M03 A3037 RMK A01 T00721031  RH  048%=      5-min Rain = 0
KGU1 142314Z 06009KT 07/M03 A3037 RMK A01 T00721031  RH  048%=      5-min Rain = 0
KGU1 142315Z 06008KT 07/M03 A3037 RMK A01 T00721031  RH  048%=      5-min Rain = 0
KGU1 142316Z 04007KT 07/M03 A3037 RMK A01 T00721031  RH  048%=      5-min Rain = 0
KGU1 142317Z 06008KT 07/M03 A3037 RMK A01 T00721031  RH  048%=      5-min Rain = 0
KGU1 142318Z 05009KT 07/M03 A3037 RMK A01 T00721031  RH  048%=      5-min Rain = 0
KGU1 142319Z 04010KT 07/M03 A3038 RMK A01 T00711031  RH  048%=      5-min Rain = 0
KGU1 142320Z 04009KT 07/M03 A3037 RMK A01 T00711031  RH  049%=      5-min Rain = 0
KGU1 142321Z 04009KT 07/M03 A3037 RMK A01 T00711030  RH  049%=      5-min Rain = 0
KGU1 142322Z 04009KT 07/M03 A3037 RMK A01 T00711030  RH  049%=      5-min Rain = 0
KGU1 142323Z 05008KT 07/M03 A3037 RMK A01 T00701030  RH  049%=      5-min Rain = 0
KGU1 142324Z 06008KT 07/M03 A3037 RMK A01 T00701030  RH  049%=      5-min Rain = 0
KGU1 142325Z 06010KT 07/M03 A3037 RMK A01 T00701030  RH  049%=      5-min Rain = 0
KGU1 142326Z 05008KT 07/M03 A3037 RMK A01 T00701030  RH  049%=      5-min Rain = 0
KGU1 142327Z 05007KT 07/M03 A3038 RMK A01 T00691030  RH  049%=      5-min Rain = 0
KGU1 142328Z 05006KT 07/M03 A3038 RMK A01 T00691030  RH  050%=      5-min Rain = 0
KGU1 142329Z 05008KT 07/M03 A3038 RMK A01 T00691030  RH  050%=      5-min Rain = 0
KGU1 142330Z 05007KT 07/M03 A3038 RMK A01 T00681030  RH  050%=      5-min Rain = 0
KGU1 142331Z 06007KT 07/M03 A3038 RMK A01 T00681030  RH  050%=      5-min Rain = 0
KGU1 142332Z 06008KT 07/M03 A3038 RMK A01 T00681030  RH  050%=      5-min Rain = 0
KGU1 142333Z 06007KT 07/M03 A3038 RMK A01 T00671030  RH  050%=      5-min Rain = 0
KGU1 142334Z 05008KT 07/M03 A3038 RMK A01 T00671030  RH  050%=      5-min Rain = 0
KGU1 142335Z 06007KT 07/M03 A3038 RMK A01 T00671029  RH  051%=      5-min Rain = 0
KGU1 142336Z 05008KT 07/M03 A3038 RMK A01 T00661029  RH  051%=      5-min Rain = 0
KGU1 142337Z 05008KT 07/M03 A3038 RMK A01 T00661028  RH  051%=      5-min Rain = 0
KGU1 142338Z 05008KT 07/M03 A3038 RMK A01 T00651028  RH  052%=      5-min Rain = 0
KGU1 142339Z 04007KT 07/M03 A3038 RMK A01 T00651027  RH  052%=      5-min Rain = 0
KGU1 142340Z 04008KT 06/M03 A3038 RMK A01 T00641027  RH  052%=      5-min Rain = 0
KGU1 142341Z 04007KT 06/M03 A3038 RMK A01 T00631027  RH  053%=      5-min Rain = 0
KGU1 142342Z 04007KT 06/M03 A3038 RMK A01 T00631027  RH  053%=      5-min Rain = 0
KGU1 142343Z 04006KT 06/M03 A3038 RMK A01 T00621027  RH  053%=      5-min Rain = 0
KGU1 142344Z 05007KT 06/M03 A3038 RMK A01 T00611027  RH  054%=      5-min Rain = 0
KGU1 142345Z 05006KT 06/M03 A3038 RMK A01 T00611026  RH  054%=      5-min Rain = 0
KGU1 142346Z 05007KT 06/M03 A3038 RMK A01 T00601027  RH  054%=      5-min Rain = 0
KGU1 142347Z 05006KT 06/M03 A3038 RMK A01 T00601027  RH  054%=      5-min Rain = 0
KGU1 142348Z 04006KT 06/M03 A3038 RMK A01 T00591027  RH  054%=      5-min Rain = 0
KGU1 142349Z 05006KT 06/M03 A3038 RMK A01 T00581027  RH  055%=      5-min Rain = 0
KGU1 142350Z 05006KT 06/M03 A3038 RMK A01 T00581026  RH  055%=      5-min Rain = 0
KGU1 142351Z 04006KT 06/M03 A3038 RMK A01 T00581026  RH  055%=      5-min Rain = 0
KGU1 142352Z 04006KT 06/M03 A3038 RMK A01 T00571027  RH  055%=      5-min Rain = 0
KGU1 142353Z 04006KT 06/M03 A3038 RMK A01 T00571026  RH  055%=      5-min Rain = 0
KGU1 142354Z 04006KT 06/M03 A3038 RMK A01 T00571026  RH  055%=      5-min Rain = 0
KGU1 142355Z 04006KT 06/M03 A3038 RMK A01 T00561026  RH  056%=      5-min Rain = 0
KGU1 142356Z 04006KT 06/M03 A3038 RMK A01 T00561026  RH  056%=      5-min Rain = 0
KGU1 142357Z 04006KT 06/M03 A3038 RMK A01 T00561026  RH  056%=      5-min Rain = 0
KGU1 142358Z 04005KT 06/M03 A3038 RMK A01 T00551026  RH  056%=      5-min Rain = 0
KGU1 142359Z 04006KT 06/M03 A3038 RMK A01 T00551026  RH  056%=      5-min Rain = 0
KGU1 150000Z 04007KT 05/M03 A3039 RMK A01 T00541026  RH  056%=      5-min Rain = 0
KGU1 150001Z 04006KT 05/M03 A3039 RMK A01 T00541026  RH  056%=      5-min Rain = 0
KGU1 150002Z 04006KT 05/M03 A3039 RMK A01 T00541026  RH  056%=      5-min Rain = 0
KGU1 150003Z 04005KT 05/M03 A3039 RMK A01 T00541026  RH  057%=      5-min Rain = 0
KGU1 150004Z 03005KT 05/M03 A3039 RMK A01 T00531026  RH  057%=      5-min Rain = 0
KGU1 150005Z 03005KT 05/M03 A3039 RMK A01 T00531026  RH  057%=      5-min Rain = 0
KGU1 150006Z 03006KT 05/M03 A3039 RMK A01 T00521027  RH  057%=      5-min Rain = 0
KGU1 150007Z 03006KT 05/M03 A3039 RMK A01 T00511026  RH  058%=      5-min Rain = 0
KGU1 150008Z 03006KT 05/M03 A3039 RMK A01 T00511026  RH  058%=      5-min Rain = 0
KGU1 150009Z 03005KT 05/M03 A3039 RMK A01 T00501027  RH  058%=      5-min Rain = 0
KGU1 150010Z 03005KT 05/M03 A3039 RMK A01 T00501027  RH  058%=      5-min Rain = 0
KGU1 150011Z 04005KT 05/M03 A3039 RMK A01 T00491027  RH  058%=      5-min Rain = 0
KGU1 150012Z 03005KT 05/M03 A3039 RMK A01 T00481027  RH  059%=      5-min Rain = 0
KGU1 150013Z 03006KT 05/M03 A3039 RMK A01 T00481027  RH  059%=      5-min Rain = 0
KGU1 150014Z 03006KT 05/M03 A3039 RMK A01 T00481026  RH  059%=      5-min Rain = 0
KGU1 150015Z 03006KT 05/M03 A3039 RMK A01 T00471027  RH  059%=      5-min Rain = 0
KGU1 150016Z 03006KT 05/M03 A3039 RMK A01 T00471026  RH  059%=      5-min Rain = 0
KGU1 150017Z 03006KT 05/M03 A3039 RMK A01 T00471026  RH  059%=      5-min Rain = 0
KGU1 150018Z 04006KT 05/M03 A3039 RMK A01 T00471027  RH  059%=      5-min Rain = 0
KGU1 150019Z 03006KT 05/M03 A3039 RMK A01 T00471026  RH  060%=      5-min Rain = 0
KGU1 150020Z 03007KT 05/M03 A3039 RMK A01 T00471026  RH  059%=      5-min Rain = 0
KGU1 150021Z 03007KT 05/M03 A3039 RMK A01 T00461027  RH  060%=      5-min Rain = 0
KGU1 150022Z 03007KT 05/M03 A3039 RMK A01 T00471026  RH  060%=      5-min Rain = 0
KGU1 150023Z 03006KT 05/M03 A3039 RMK A01 T00471026  RH  060%=      5-min Rain = 0
KGU1 150024Z 03006KT 05/M03 A3039 RMK A01 T00471026  RH  060%=      5-min Rain = 0
KGU1 150025Z 03006KT 05/M03 A3039 RMK A01 T00471026  RH  060%=      5-min Rain = 0
KGU1 150026Z 03006KT 05/M03 A3039 RMK A01 T00461026  RH  060%=      5-min Rain = 0
KGU1 150027Z 03005KT 05/M03 A3039 RMK A01 T00461026  RH  060%=      5-min Rain = 0
KGU1 150028Z 03006KT 05/M03 A3039 RMK A01 T00461026  RH  060%=      5-min Rain = 0
KGU1 150029Z 03006KT 05/M03 A304 RMK A01 T00451026  RH  060%=      5-min Rain = 0
KGU1 150030Z 03006KT 05/M03 A304 RMK A01 T00451026  RH  060%=      5-min Rain = 0
KGU1 150031Z 03006KT 05/M03 A304 RMK A01 T00451026  RH  061%=      5-min Rain = 0
KGU1 150032Z 03006KT 04/M03 A304 RMK A01 T00441026  RH  061%=      5-min Rain = 0
KGU1 150033Z 03006KT 04/M03 A304 RMK A01 T00441026  RH  061%=      5-min Rain = 0
KGU1 150034Z 03006KT 04/M03 A304 RMK A01 T00441025  RH  061%=      5-min Rain = 0
KGU1 150035Z 03006KT 04/M03 A304 RMK A01 T00441026  RH  061%=      5-min Rain = 0
KGU1 150036Z 03006KT 04/M03 A304 RMK A01 T00441025  RH  061%=      5-min Rain = 0
KGU1 150037Z 03007KT 05/M03 A304 RMK A01 T00451025  RH  061%=      5-min Rain = 0
KGU1 150038Z 03006KT 04/M03 A304 RMK A01 T00441025  RH  061%=      5-min Rain = 0
KGU1 150039Z 03006KT 04/M03 A304 RMK A01 T00441025  RH  061%=      5-min Rain = 0
KGU1 150040Z 03007KT 05/M03 A304 RMK A01 T00451025  RH  061%=      5-min Rain = 0
KGU1 150041Z 03007KT 05/M03 A304 RMK A01 T00451025  RH  061%=      5-min Rain = 0
KGU1 150042Z 03006KT 05/M03 A304 RMK A01 T00461025  RH  061%=      5-min Rain = 0
KGU1 150043Z 03006KT 05/M02 A304 RMK A01 T00461024  RH  061%=      5-min Rain = 0
KGU1 150044Z 03006KT 05/M03 A304 RMK A01 T00451025  RH  061%=      5-min Rain = 0
KGU1 150045Z 02006KT 05/M03 A304 RMK A01 T00451025  RH  061%=      5-min Rain = 0
KGU1 150046Z 03006KT 05/M02 A304 RMK A01 T00451024  RH  061%=      5-min Rain = 0
KGU1 150047Z 02007KT 04/M02 A304 RMK A01 T00441024  RH  061%=      5-min Rain = 0
KGU1 150048Z 03008KT 05/M02 A304 RMK A01 T00451024  RH  061%=      5-min Rain = 0
KGU1 150049Z 03007KT 05/M02 A304 RMK A01 T00451024  RH  061%=      5-min Rain = 0
KGU1 150050Z 03006KT 05/M02 A304 RMK A01 T00451024  RH  061%=      5-min Rain = 0
KGU1 150051Z 03007KT 05/M02 A304 RMK A01 T00451024  RH  061%=      5-min Rain = 0
KGU1 150052Z 02006KT 05/M02 A304 RMK A01 T00451024  RH  061%=      5-min Rain = 0
KGU1 150053Z 02006KT 04/M03 A3041 RMK A01 T00441025  RH  061%=      5-min Rain = 0
KGU1 150054Z 03006KT 04/M02 A3041 RMK A01 T00441024  RH  061%=      5-min Rain = 0
KGU1 150055Z 03006KT 05/M02 A3041 RMK A01 T00451024  RH  061%=      5-min Rain = 0
KGU1 150056Z 03007KT 04/M02 A3041 RMK A01 T00441024  RH  062%=      5-min Rain = 0
KGU1 150057Z 03007KT 04/M02 A3041 RMK A01 T00441024  RH  062%=      5-min Rain = 0
KGU1 150058Z 02007KT 04/M02 A3041 RMK A01 T00441024  RH  062%=      5-min Rain = 0
KGU1 150059Z 02007KT 04/M02 A3041 RMK A01 T00441024  RH  062%=      5-min Rain = 0
KGU1 150100Z 02007KT 04/M02 A3041 RMK A01 T00441024  RH  062%=      5-min Rain = 0
KGU1 150101Z 03006KT 04/M02 A3041 RMK A01 T00441024  RH  062%=      5-min Rain = 0
KGU1 150102Z 03006KT 04/M02 A3041 RMK A01 T00431024  RH  062%=      5-min Rain = 0
KGU1 150103Z 03006KT 04/M02 A3041 RMK A01 T00431024  RH  062%=      5-min Rain = 0
KGU1 150104Z 03007KT 04/M02 A3041 RMK A01 T00431024  RH  062%=      5-min Rain = 0
KGU1 150105Z 03006KT 04/M02 A3041 RMK A01 T00431024  RH  062%=      5-min Rain = 0
KGU1 150106Z 03006KT 04/M02 A3041 RMK A01 T00431024  RH  062%=      5-min Rain = 0
KGU1 150107Z 03006KT 04/M02 A3041 RMK A01 T00431024  RH  062%=      5-min Rain = 0
KGU1 150108Z 02007KT 04/M02 A3041 RMK A01 T00441024  RH  062%=      5-min Rain = 0
KGU1 150109Z 03007KT 04/M02 A3041 RMK A01 T00441023  RH  062%=      5-min Rain = 0
KGU1 150110Z 03007KT 05/M02 A3041 RMK A01 T00451023  RH  062%=      5-min Rain = 0
KGU1 150111Z 02006KT 05/M02 A3041 RMK A01 T00451024  RH  062%=      5-min Rain = 0
KGU1 150112Z 03006KT 04/M02 A3041 RMK A01 T00441024  RH  062%=      5-min Rain = 0
KGU1 150113Z 03005KT 04/M02 A3041 RMK A01 T00441024  RH  062%=      5-min Rain = 0
KGU1 150114Z 02006KT 04/M02 A3041 RMK A01 T00431024  RH  062%=      5-min Rain = 0
KGU1 150115Z 03006KT 04/M02 A3041 RMK A01 T00421024  RH  062%=      5-min Rain = 0
KGU1 150116Z 02007KT 04/M02 A3041 RMK A01 T00421024  RH  063%=      5-min Rain = 0
KGU1 150117Z 02006KT 04/M02 A3041 RMK A01 T00411024  RH  063%=      5-min Rain = 0
KGU1 150118Z 02006KT 04/M03 A3041 RMK A01 T00411025  RH  063%=      5-min Rain = 0
KGU1 150119Z 03006KT 04/M02 A3041 RMK A01 T00411024  RH  063%=      5-min Rain = 0
KGU1 150120Z 02007KT 04/M02 A3041 RMK A01 T00401024  RH  063%=      5-min Rain = 0
KGU1 150121Z 02007KT 04/M02 A3041 RMK A01 T00401024  RH  063%=      5-min Rain = 0
KGU1 150122Z 03007KT 04/M02 A3042 RMK A01 T00411024  RH  063%=      5-min Rain = 0
KGU1 150123Z 02007KT 04/M02 A3042 RMK A01 T00411024  RH  063%=      5-min Rain = 0
KGU1 150124Z 02007KT 04/M02 A3042 RMK A01 T00411024  RH  063%=      5-min Rain = 0
KGU1 150125Z 02007KT 04/M02 A3042 RMK A01 T00421024  RH  063%=      5-min Rain = 0
KGU1 150126Z 02007KT 04/M02 A3042 RMK A01 T00421024  RH  063%=      5-min Rain = 0
KGU1 150127Z 02008KT 04/M02 A3042 RMK A01 T00411024  RH  063%=      5-min Rain = 0
KGU1 150128Z 02007KT 04/M02 A3042 RMK A01 T00411024  RH  063%=      5-min Rain = 0
KGU1 150129Z 03006KT 04/M02 A3042 RMK A01 T00411024  RH  063%=      5-min Rain = 0
KGU1 150130Z 02005KT 04/M02 A3042 RMK A01 T00411024  RH  063%=      5-min Rain = 0
KGU1 150131Z 02007KT 04/M02 A3042 RMK A01 T00411024  RH  063%=      5-min Rain = 0
KGU1 150132Z 02007KT 04/M02 A3042 RMK A01 T00411024  RH  063%=      5-min Rain = 0
KGU1 150133Z 02006KT 04/M02 A3042 RMK A01 T00411023  RH  063%=      5-min Rain = 0
KGU1 150134Z 02006KT 04/M02 A3042 RMK A01 T00411024  RH  063%=      5-min Rain = 0
KGU1 150135Z 02006KT 04/M02 A3042 RMK A01 T00411024  RH  063%=      5-min Rain = 0
KGU1 150136Z 02006KT 04/M02 A3042 RMK A01 T00411023  RH  064%=      5-min Rain = 0
KGU1 150137Z 02006KT 04/M02 A3042 RMK A01 T00411024  RH  063%=      5-min Rain = 0
KGU1 150138Z 03005KT 04/M02 A3042 RMK A01 T00411024  RH  063%=      5-min Rain = 0
KGU1 150139Z 02005KT 04/M02 A3042 RMK A01 T00411024  RH  063%=      5-min Rain = 0
KGU1 150140Z 02006KT 04/M02 A3042 RMK A01 T00401024  RH  063%=      5-min Rain = 0
KGU1 150141Z 02006KT 04/M02 A3042 RMK A01 T00401023  RH  064%=      5-min Rain = 0
KGU1 150142Z 02006KT 04/M02 A3042 RMK A01 T00401023  RH  064%=      5-min Rain = 0
KGU1 150143Z 02006KT 04/M02 A3042 RMK A01 T00401024  RH  064%=      5-min Rain = 0
KGU1 150144Z 02006KT 04/M02 A3042 RMK A01 T00401023  RH  064%=      5-min Rain = 0
KGU1 150145Z 02005KT 04/M02 A3042 RMK A01 T00401023  RH  064%=      5-min Rain = 0
KGU1 150146Z 02006KT 04/M02 A3042 RMK A01 T00391024  RH  064%=      5-min Rain = 0
KGU1 150147Z 02005KT 04/M02 A3042 RMK A01 T00391024  RH  064%=      5-min Rain = 0
KGU1 150148Z 02004KT 04/M02 A3043 RMK A01 T00401023  RH  064%=      5-min Rain = 0
KGU1 150149Z 02005KT 04/M02 A3043 RMK A01 T00391024  RH  064%=      5-min Rain = 0
KGU1 150150Z 02006KT 04/M02 A3043 RMK A01 T00391024  RH  064%=      5-min Rain = 0
KGU1 150151Z 02006KT 04/M02 A3043 RMK A01 T00391023  RH  064%=      5-min Rain = 0
KGU1 150152Z 02006KT 04/M02 A3043 RMK A01 T00391023  RH  064%=      5-min Rain = 0
KGU1 150153Z 03006KT 04/M02 A3043 RMK A01 T00391023  RH  064%=      5-min Rain = 0
KGU1 150154Z 03006KT 04/M02 A3043 RMK A01 T00401023  RH  064%=      5-min Rain = 0
KGU1 150155Z 02005KT 04/M02 A3043 RMK A01 T00391023  RH  064%=      5-min Rain = 0
KGU1 150156Z 02005KT 04/M02 A3043 RMK A01 T00391023  RH  064%=      5-min Rain = 0
KGU1 150157Z 03007KT 04/M02 A3043 RMK A01 T00391023  RH  064%=      5-min Rain = 0
KGU1 150158Z 02005KT 04/M02 A3043 RMK A01 T00401022  RH  064%=      5-min Rain = 0
KGU1 150159Z 02004KT 04/M02 A3043 RMK A01 T00401023  RH  064%=      5-min Rain = 0
KGU1 150200Z 02005KT 04/M02 A3043 RMK A01 T00401023  RH  064%=      5-min Rain = 0
KGU1 150201Z 01005KT 04/M02 A3043 RMK A01 T00391023  RH  064%=      5-min Rain = 0
KGU1 150202Z 02005KT 04/M02 A3043 RMK A01 T00381023  RH  065%=      5-min Rain = 0
KGU1 150203Z 02005KT 04/M02 A3043 RMK A01 T00381023  RH  065%=      5-min Rain = 0
KGU1 150204Z 02005KT 04/M02 A3043 RMK A01 T00371023  RH  065%=      5-min Rain = 0
KGU1 150205Z 02006KT 04/M02 A3043 RMK A01 T00371023  RH  065%=      5-min Rain = 0
KGU1 150206Z 02007KT 04/M02 A3043 RMK A01 T00371023  RH  065%=      5-min Rain = 0
KGU1 150207Z 02005KT 04/M02 A3043 RMK A01 T00381022  RH  065%=      5-min Rain = 0
KGU1 150208Z 03006KT 04/M02 A3043 RMK A01 T00381023  RH  065%=      5-min Rain = 0
KGU1 150209Z 02005KT 04/M02 A3043 RMK A01 T00381023  RH  065%=      5-min Rain = 0
KGU1 150210Z 02005KT 04/M02 A3043 RMK A01 T00381022  RH  065%=      5-min Rain = 0
KGU1 150211Z 03005KT 04/M02 A3043 RMK A01 T00381022  RH  065%=      5-min Rain = 0
KGU1 150212Z 03006KT 04/M02 A3043 RMK A01 T00381023  RH  065%=      5-min Rain = 0
KGU1 150213Z 03005KT 04/M02 A3043 RMK A01 T00381023  RH  065%=      5-min Rain = 0
KGU1 150214Z 02004KT 04/M02 A3043 RMK A01 T00371023  RH  065%=      5-min Rain = 0
KGU1 150215Z 03005KT 04/M02 A3043 RMK A01 T00361023  RH  066%=      5-min Rain = 0
KGU1 150216Z 03005KT 04/M02 A3043 RMK A01 T00371022  RH  066%=      5-min Rain = 0
KGU1 150217Z 02005KT 04/M02 A3043 RMK A01 T00361023  RH  066%=      5-min Rain = 0
KGU1 150218Z 02005KT 04/M02 A3043 RMK A01 T00351023  RH  066%=      5-min Rain = 0
KGU1 150219Z 03005KT 04/M02 A3043 RMK A01 T00351023  RH  066%=      5-min Rain = 0
KGU1 150220Z 02004KT 04/M02 A3043 RMK A01 T00351023  RH  067%=      5-min Rain = 0
KGU1 150221Z 02004KT 03/M02 A3043 RMK A01 T00341023  RH  067%=      5-min Rain = 0
KGU1 150222Z 02004KT 03/M02 A3043 RMK A01 T00341023  RH  067%=      5-min Rain = 0
KGU1 150223Z 03006KT 03/M02 A3043 RMK A01 T00341023  RH  067%=      5-min Rain = 0
KGU1 150224Z 03005KT 03/M02 A3043 RMK A01 T00341022  RH  067%=      5-min Rain = 0
KGU1 150225Z 02004KT 03/M02 A3043 RMK A01 T00341022  RH  067%=      5-min Rain = 0
KGU1 150226Z 02005KT 04/M02 A3043 RMK A01 T00351022  RH  067%=      5-min Rain = 0
KGU1 150227Z 03005KT 04/M02 A3043 RMK A01 T00351022  RH  067%=      5-min Rain = 0
KGU1 150228Z 02006KT 04/M02 A3043 RMK A01 T00351022  RH  067%=      5-min Rain = 0
KGU1 150229Z 02005KT 04/M02 A3043 RMK A01 T00351022  RH  067%=      5-min Rain = 0
KGU1 150230Z 01005KT 04/M02 A3043 RMK A01 T00361022  RH  067%=      5-min Rain = 0
KGU1 150231Z 02005KT 04/M02 A3043 RMK A01 T00351022  RH  067%=      5-min Rain = 0
KGU1 150232Z 01005KT 03/M02 A3043 RMK A01 T00341022  RH  067%=      5-min Rain = 0
KGU1 150233Z 02006KT 03/M02 A3043 RMK A01 T00341022  RH  067%=      5-min Rain = 0
KGU1 150234Z 03005KT 03/M02 A3043 RMK A01 T00341022  RH  067%=      5-min Rain = 0
KGU1 150235Z 02005KT 04/M02 A3043 RMK A01 T00351022  RH  067%=      5-min Rain = 0
KGU1 150236Z 02004KT 04/M02 A3043 RMK A01 T00351022  RH  067%=      5-min Rain = 0
KGU1 150237Z 02004KT 03/M02 A3043 RMK A01 T00341023  RH  067%=      5-min Rain = 0
KGU1 150238Z 02005KT 03/M02 A3043 RMK A01 T00341023  RH  067%=      5-min Rain = 0
KGU1 150239Z 03005KT 03/M02 A3043 RMK A01 T00331023  RH  067%=      5-min Rain = 0
KGU1 150240Z 03005KT 03/M02 A3043 RMK A01 T00331023  RH  068%=      5-min Rain = 0
KGU1 150241Z 03004KT 03/M02 A3043 RMK A01 T00321022  RH  068%=      5-min Rain = 0
KGU1 150242Z 02004KT 03/M02 A3043 RMK A01 T00321022  RH  068%=      5-min Rain = 0
KGU1 150243Z 03004KT 03/M02 A3043 RMK A01 T00331022  RH  068%=      5-min Rain = 0
KGU1 150244Z 03005KT 03/M02 A3043 RMK A01 T00321023  RH  068%=      5-min Rain = 0
KGU1 150245Z 02004KT 03/M02 A3043 RMK A01 T00321023  RH  068%=      5-min Rain = 0
KGU1 150246Z 03005KT 03/M02 A3043 RMK A01 T00311023  RH  068%=      5-min Rain = 0
KGU1 150247Z 02004KT 03/M02 A3043 RMK A01 T00311022  RH  068%=      5-min Rain = 0
KGU1 150248Z 01005KT 03/M02 A3043 RMK A01 T00311023  RH  068%=      5-min Rain = 0
KGU1 150249Z 02005KT 03/M02 A3043 RMK A01 T00311022  RH  068%=      5-min Rain = 0
KGU1 150250Z 02005KT 03/M02 A3043 RMK A01 T00311022  RH  069%=      5-min Rain = 0
KGU1 150251Z 02005KT 03/M02 A3043 RMK A01 T00321022  RH  069%=      5-min Rain = 0
KGU1 150252Z 02005KT 03/M02 A3043 RMK A01 T00311022  RH  068%=      5-min Rain = 0
KGU1 150253Z 02006KT 03/M02 A3043 RMK A01 T00311022  RH  069%=      5-min Rain = 0
KGU1 150254Z 03006KT 03/M02 A3043 RMK A01 T00331020  RH  069%=      5-min Rain = 0
KGU1 150255Z 03006KT 03/M02 A3043 RMK A01 T00341020  RH  068%=      5-min Rain = 0
KGU1 150256Z 02005KT 04/M02 A3043 RMK A01 T00351020  RH  067%=      5-min Rain = 0
KGU1 150257Z 02005KT 04/M02 A3044 RMK A01 T00351021  RH  067%=      5-min Rain = 0
KGU1 150258Z 01005KT 03/M02 A3044 RMK A01 T00341021  RH  068%=      5-min Rain = 0
KGU1 150259Z 01005KT 03/M02 A3044 RMK A01 T00331022  RH  068%=      5-min Rain = 0
KGU1 150300Z 02005KT 03/M02 A3044 RMK A01 T00321022  RH  068%=      5-min Rain = 0
KGU1 150301Z 02005KT 03/M02 A3044 RMK A01 T00321022  RH  068%=      5-min Rain = 0
KGU1 150302Z 03005KT 03/M02 A3044 RMK A01 T00321021  RH  069%=      5-min Rain = 0
KGU1 150303Z 02005KT 03/M02 A3044 RMK A01 T00321021  RH  069%=      5-min Rain = 0
KGU1 150304Z 03004KT 03/M02 A3044 RMK A01 T00321021  RH  069%=      5-min Rain = 0
KGU1 150305Z 02005KT 03/M02 A3044 RMK A01 T00321021  RH  069%=      5-min Rain = 0
KGU1 150306Z 01005KT 03/M02 A3044 RMK A01 T00321021  RH  069%=      5-min Rain = 0
KGU1 150307Z 00005KT 03/M02 A3044 RMK A01 T00331020  RH  069%=      5-min Rain = 0
KGU1 150308Z 02005KT 03/M02 A3044 RMK A01 T00321021  RH  069%=      5-min Rain = 0
KGU1 150309Z 02005KT 03/M02 A3044 RMK A01 T00311021  RH  069%=      5-min Rain = 0
KGU1 150310Z 01005KT 03/M02 A3044 RMK A01 T00311021  RH  069%=      5-min Rain = 0
KGU1 150311Z 02005KT 03/M02 A3044 RMK A01 T00311021  RH  069%=      5-min Rain = 0
KGU1 150312Z 01004KT 03/M02 A3044 RMK A01 T00301021  RH  070%=      5-min Rain = 0
KGU1 150313Z 02004KT 03/M02 A3044 RMK A01 T00301021  RH  070%=      5-min Rain = 0
KGU1 150314Z 02005KT 03/M02 A3044 RMK A01 T00301021  RH  070%=      5-min Rain = 0
KGU1 150315Z 02004KT 03/M02 A3044 RMK A01 T00301021  RH  070%=      5-min Rain = 0
KGU1 150316Z 02005KT 03/M02 A3044 RMK A01 T00301020  RH  070%=      5-min Rain = 0
KGU1 150317Z 01005KT 03/M02 A3044 RMK A01 T00301021  RH  070%=      5-min Rain = 0
KGU1 150318Z 02005KT 03/M02 A3044 RMK A01 T00301021  RH  070%=      5-min Rain = 0
KGU1 150319Z 02005KT 03/M02 A3044 RMK A01 T00301021  RH  070%=      5-min Rain = 0
KGU1 150320Z 03004KT 03/M02 A3044 RMK A01 T00301020  RH  070%=      5-min Rain = 0
KGU1 150321Z 02004KT 03/M02 A3044 RMK A01 T00301020  RH  070%=      5-min Rain = 0
KGU1 150322Z 01004KT 03/M02 A3045 RMK A01 T00311020  RH  070%=      5-min Rain = 0
KGU1 150323Z 02004KT 03/M02 A3045 RMK A01 T00301020  RH  070%=      5-min Rain = 0
KGU1 150324Z 01004KT 03/M02 A3045 RMK A01 T00301021  RH  070%=      5-min Rain = 0
KGU1 150325Z 01004KT 03/M02 A3045 RMK A01 T00291021  RH  070%=      5-min Rain = 0
KGU1 150326Z 01004KT 03/M02 A3045 RMK A01 T00291021  RH  070%=      5-min Rain = 0
KGU1 150327Z 01004KT 03/M02 A3045 RMK A01 T00291021  RH  070%=      5-min Rain = 0
KGU1 150328Z 02005KT 03/M02 A3045 RMK A01 T00281021  RH  070%=      5-min Rain = 0
KGU1 150329Z 02005KT 03/M02 A3044 RMK A01 T00291021  RH  071%=      5-min Rain = 0
KGU1 150330Z 02004KT 03/M02 A3044 RMK A01 T00291021  RH  071%=      5-min Rain = 0
KGU1 150331Z 02004KT 03/M02 A3045 RMK A01 T00281021  RH  071%=      5-min Rain = 0
KGU1 150332Z 02003KT 03/M02 A3045 RMK A01 T00281021  RH  071%=      5-min Rain = 0
KGU1 150333Z 02004KT 03/M02 A3045 RMK A01 T00281021  RH  071%=      5-min Rain = 0
KGU1 150334Z 03004KT 03/M02 A3045 RMK A01 T00271021  RH  071%=      5-min Rain = 0
KGU1 150335Z 03004KT 03/M02 A3045 RMK A01 T00291020  RH  071%=      5-min Rain = 0
KGU1 150336Z 02003KT 03/M02 A3045 RMK A01 T00291020  RH  071%=      5-min Rain = 0
KGU1 150337Z 01003KT 03/M02 A3045 RMK A01 T00291021  RH  070%=      5-min Rain = 0
KGU1 150338Z 00003KT 03/M02 A3045 RMK A01 T00291021  RH  070%=      5-min Rain = 0
KGU1 150339Z 00003KT 03/M02 A3045 RMK A01 T00291021  RH  070%=      5-min Rain = 0
KGU1 150340Z 00003KT 03/M02 A3045 RMK A01 T00291021  RH  071%=      5-min Rain = 0
KGU1 150341Z 01004KT 03/M02 A3045 RMK A01 T00291020  RH  071%=      5-min Rain = 0
KGU1 150342Z 02004KT 03/M02 A3045 RMK A01 T00291020  RH  071%=      5-min Rain = 0
KGU1 150343Z 02003KT 03/M02 A3045 RMK A01 T00301020  RH  070%=      5-min Rain = 0
KGU1 150344Z 02003KT 03/M02 A3045 RMK A01 T00291021  RH  070%=      5-min Rain = 0
KGU1 150345Z 01004KT 03/M02 A3045 RMK A01 T00281021  RH  071%=      5-min Rain = 0
KGU1 150346Z 01004KT 03/M02 A3045 RMK A01 T00271021  RH  071%=      5-min Rain = 0
KGU1 150347Z 01005KT 03/M02 A3045 RMK A01 T00271021  RH  071%=      5-min Rain = 0
KGU1 150348Z 02005KT 03/M02 A3045 RMK A01 T00271021  RH  071%=      5-min Rain = 0
KGU1 150349Z 03004KT 03/M02 A3045 RMK A01 T00271021  RH  071%=      5-min Rain = 0
KGU1 150350Z 03003KT 03/M02 A3045 RMK A01 T00271021  RH  072%=      5-min Rain = 0
KGU1 150351Z 02004KT 03/M02 A3045 RMK A01 T00261022  RH  071%=      5-min Rain = 0
KGU1 150352Z 02004KT 03/M02 A3045 RMK A01 T00251022  RH  072%=      5-min Rain = 0
KGU1 150353Z 02004KT 03/M02 A3045 RMK A01 T00251022  RH  072%=      5-min Rain = 0
KGU1 150354Z 02004KT 03/M02 A3045 RMK A01 T00251021  RH  072%=      5-min Rain = 0
KGU1 150355Z 01005KT 03/M02 A3045 RMK A01 T00251021  RH  072%=      5-min Rain = 0
KGU1 150356Z 02004KT 03/M02 A3045 RMK A01 T00261021  RH  072%=      5-min Rain = 0
KGU1 150357Z 02004KT 03/M02 A3045 RMK A01 T00261020  RH  072%=      5-min Rain = 0
KGU1 150358Z 03004KT 03/M02 A3045 RMK A01 T00271020  RH  072%=      5-min Rain = 0
KGU1 150359Z 03004KT 03/M02 A3045 RMK A01 T00271020  RH  072%=      5-min Rain = 0
KGU1 150400Z 03003KT 03/M02 A3045 RMK A01 T00281020  RH  071%=      5-min Rain = 0
KGU1 150401Z 02004KT 03/M02 A3045 RMK A01 T00271020  RH  071%=      5-min Rain = 0
KGU1 150402Z 02004KT 03/M02 A3045 RMK A01 T00271021  RH  071%=      5-min Rain = 0
KGU1 150403Z 02003KT 03/M02 A3045 RMK A01 T00271021  RH  072%=      5-min Rain = 0
KGU1 150404Z 02003KT 03/M02 A3045 RMK A01 T00261020  RH  072%=      5-min Rain = 0
KGU1 150405Z 02004KT 03/M02 A3045 RMK A01 T00261021  RH  072%=      5-min Rain = 0
KGU1 150406Z 02004KT 03/M02 A3045 RMK A01 T00251021  RH  072%=      5-min Rain = 0
KGU1 150407Z 03004KT 03/M02 A3045 RMK A01 T00251021  RH  072%=      5-min Rain = 0
KGU1 150408Z 03004KT 02/M02 A3045 RMK A01 T00241022  RH  072%=      5-min Rain = 0
KGU1 150409Z 03004KT 02/M02 A3045 RMK A01 T00231022  RH  073%=      5-min Rain = 0
KGU1 150410Z 02004KT 02/M02 A3045 RMK A01 T00231022  RH  073%=      5-min Rain = 0
KGU1 150411Z 02004KT 02/M02 A3045 RMK A01 T00231022  RH  073%=      5-min Rain = 0
KGU1 150412Z 01003KT 02/M02 A3045 RMK A01 T00221021  RH  073%=      5-min Rain = 0
KGU1 150413Z 00004KT 02/M02 A3045 RMK A01 T00221022  RH  073%=      5-min Rain = 0
KGU1 150414Z 36003KT 02/M02 A3045 RMK A01 T00221021  RH  074%=      5-min Rain = 0
KGU1 150415Z 01003KT 02/M02 A3045 RMK A01 T00221021  RH  074%=      5-min Rain = 0
KGU1 150416Z 01004KT 02/M02 A3045 RMK A01 T00221020  RH  074%=      5-min Rain = 0
KGU1 150417Z 00004KT 02/M02 A3045 RMK A01 T00231020  RH  074%=      5-min Rain = 0
KGU1 150418Z 01004KT 02/M02 A3045 RMK A01 T00241020  RH  073%=      5-min Rain = 0
KGU1 150419Z 35004KT 03/M02 A3045 RMK A01 T00251020  RH  073%=      5-min Rain = 0
KGU1 150420Z 00004KT 03/M02 A3045 RMK A01 T00251020  RH  073%=      5-min Rain = 0
KGU1 150421Z 01005KT 02/M02 A3045 RMK A01 T00241021  RH  073%=      5-min Rain = 0
KGU1 150422Z 01005KT 02/M02 A3045 RMK A01 T00241020  RH  073%=      5-min Rain = 0
KGU1 150423Z 02005KT 02/M02 A3045 RMK A01 T00241021  RH  073%=      5-min Rain = 0
KGU1 150424Z 01005KT 02/M02 A3045 RMK A01 T00241020  RH  073%=      5-min Rain = 0
KGU1 150425Z 01005KT 03/M02 A3045 RMK A01 T00251020  RH  073%=      5-min Rain = 0
KGU1 150426Z 01005KT 03/M02 A3045 RMK A01 T00251020  RH  073%=      5-min Rain = 0
KGU1 150427Z 01004KT 03/M02 A3045 RMK A01 T00251020  RH  073%=      5-min Rain = 0
KGU1 150428Z 01005KT 03/M02 A3045 RMK A01 T00251020  RH  073%=      5-min Rain = 0
KGU1 150429Z 01005KT 03/M02 A3045 RMK A01 T00251020  RH  073%=      5-min Rain = 0
KGU1 150430Z 02005KT 03/M02 A3045 RMK A01 T00251020  RH  073%=      5-min Rain = 0
KGU1 150431Z 01004KT 03/M02 A3045 RMK A01 T00251020  RH  073%=      5-min Rain = 0
KGU1 150432Z 01005KT 02/M02 A3045 RMK A01 T00241020  RH  073%=      5-min Rain = 0
KGU1 150433Z 00004KT 02/M02 A3045 RMK A01 T00241020  RH  073%=      5-min Rain = 0
KGU1 150434Z 01005KT 02/M02 A3045 RMK A01 T00241020  RH  073%=      5-min Rain = 0
KGU1 150435Z 00004KT 02/M02 A3045 RMK A01 T00241020  RH  073%=      5-min Rain = 0
KGU1 150436Z 00004KT 02/M02 A3045 RMK A01 T00241019  RH  074%=      5-min Rain = 0
KGU1 150437Z 01004KT 03/M02 A3045 RMK A01 T00251019  RH  073%=      5-min Rain = 0
KGU1 150438Z 01004KT 03/M02 A3045 RMK A01 T00251019  RH  073%=      5-min Rain = 0
KGU1 150439Z 01004KT 03/M02 A3045 RMK A01 T00251019  RH  073%=      5-min Rain = 0
KGU1 150440Z 01004KT 03/M02 A3045 RMK A01 T00251020  RH  073%=      5-min Rain = 0
KGU1 150441Z 01004KT 03/M02 A3045 RMK A01 T00251020  RH  073%=      5-min Rain = 0
KGU1 150442Z 00004KT 03/M02 A3045 RMK A01 T00251019  RH  073%=      5-min Rain = 0
KGU1 150443Z 00004KT 03/M02 A3045 RMK A01 T00261019  RH  073%=      5-min Rain = 0
KGU1 150444Z 00004KT 03/M02 A3045 RMK A01 T00261019  RH  073%=      5-min Rain = 0
KGU1 150445Z 00004KT 03/M02 A3045 RMK A01 T00261019  RH  073%=      5-min Rain = 0
KGU1 150446Z 00004KT 03/M02 A3045 RMK A01 T00261020  RH  073%=      5-min Rain = 0
KGU1 150447Z 01004KT 03/M02 A3045 RMK A01 T00251020  RH  073%=      5-min Rain = 0
KGU1 150448Z 01004KT 03/M02 A3045 RMK A01 T00251020  RH  073%=      5-min Rain = 0
KGU1 150449Z 01004KT 03/M02 A3045 RMK A01 T00251020  RH  073%=      5-min Rain = 0
KGU1 150450Z 01004KT 02/M02 A3045 RMK A01 T00241020  RH  073%=      5-min Rain = 0
KGU1 150451Z 02005KT 02/M02 A3045 RMK A01 T00241020  RH  073%=      5-min Rain = 0
KGU1 150452Z 02005KT 02/M02 A3045 RMK A01 T00241020  RH  073%=      5-min Rain = 0
KGU1 150453Z 02004KT 03/M02 A3045 RMK A01 T00251019  RH  073%=      5-min Rain = 0
KGU1 150454Z 03004KT 03/M02 A3045 RMK A01 T00251020  RH  073%=      5-min Rain = 0
KGU1 150455Z 03004KT 02/M02 A3045 RMK A01 T00241020  RH  073%=      5-min Rain = 0
KGU1 150456Z 03005KT 02/M02 A3045 RMK A01 T00231021  RH  073%=      5-min Rain = 0
KGU1 150457Z 03005KT 02/M02 A3045 RMK A01 T00221021  RH  074%=      5-min Rain = 0
KGU1 150458Z 02004KT 02/M02 A3045 RMK A01 T00221021  RH  074%=      5-min Rain = 0
KGU1 150459Z 02004KT 02/M02 A3045 RMK A01 T00221020  RH  074%=      5-min Rain = 0
KGU1 150500Z 02003KT 02/M02 A3045 RMK A01 T00211021  RH  074%=      5-min Rain = 0
KGU1 150501Z 01003KT 02/M02 A3045 RMK A01 T00211021  RH  074%=      5-min Rain = 0
KGU1 150502Z 01003KT 02/M02 A3045 RMK A01 T00211021  RH  075%=      5-min Rain = 0
KGU1 150503Z 01002KT 02/M02 A3045 RMK A01 T00211020  RH  075%=      5-min Rain = 0
KGU1 150504Z 01002KT 02/M02 A3045 RMK A01 T00221020  RH  075%=      5-min Rain = 0
KGU1 150505Z 00003KT 02/M02 A3045 RMK A01 T00231019  RH  074%=      5-min Rain = 0
KGU1 150506Z 35002KT 02/M02 A3045 RMK A01 T00241019  RH  074%=      5-min Rain = 0
KGU1 150507Z 35003KT 02/M02 A3045 RMK A01 T00241020  RH  074%=      5-min Rain = 0
KGU1 150508Z 35003KT 02/M02 A3045 RMK A01 T00221021  RH  074%=      5-min Rain = 0
KGU1 150509Z 36003KT 02/M02 A3045 RMK A01 T00221021  RH  074%=      5-min Rain = 0
KGU1 150510Z 34003KT 02/M02 A3045 RMK A01 T00211021  RH  074%=      5-min Rain = 0
KGU1 150511Z 34003KT 02/M02 A3045 RMK A01 T00211021  RH  074%=      5-min Rain = 0
KGU1 150512Z 35003KT 02/M02 A3045 RMK A01 T00201022  RH  074%=      5-min Rain = 0
KGU1 150513Z 00003KT 02/M02 A3045 RMK A01 T00191022  RH  075%=      5-min Rain = 0
KGU1 150514Z 35003KT 02/M02 A3045 RMK A01 T00201021  RH  075%=      5-min Rain = 0
KGU1 150515Z 36003KT 02/M02 A3045 RMK A01 T00201021  RH  075%=      5-min Rain = 0
KGU1 150516Z 35003KT 02/M02 A3045 RMK A01 T00201021  RH  075%=      5-min Rain = 0
KGU1 150517Z 00003KT 02/M02 A3045 RMK A01 T00201021  RH  075%=      5-min Rain = 0
KGU1 150518Z 00003KT 02/M02 A3045 RMK A01 T00191021  RH  075%=      5-min Rain = 0
KGU1 150519Z 01003KT 02/M02 A3045 RMK A01 T00191022  RH  075%=      5-min Rain = 0
KGU1 150520Z 36003KT 02/M02 A3045 RMK A01 T00191021  RH  075%=      5-min Rain = 0
KGU1 150521Z 00003KT 02/M02 A3045 RMK A01 T00191022  RH  075%=      5-min Rain = 0
KGU1 150522Z 00003KT 02/M02 A3045 RMK A01 T00181023  RH  075%=      5-min Rain = 0
KGU1 150523Z 00003KT 02/M02 A3045 RMK A01 T00171022  RH  076%=      5-min Rain = 0
KGU1 150524Z 00004KT 02/M02 A3045 RMK A01 T00181021  RH  076%=      5-min Rain = 0
KGU1 150525Z 36004KT 02/M02 A3045 RMK A01 T00191021  RH  075%=      5-min Rain = 0
KGU1 150526Z 35003KT 02/M02 A3045 RMK A01 T00191022  RH  075%=      5-min Rain = 0
KGU1 150527Z 34003KT 02/M02 A3045 RMK A01 T00171023  RH  075%=      5-min Rain = 0
KGU1 150528Z 35003KT 02/M02 A3045 RMK A01 T00171023  RH  076%=      5-min Rain = 0
KGU1 150529Z 36002KT 02/M02 A3045 RMK A01 T00161022  RH  076%=      5-min Rain = 0
KGU1 150530Z 36003KT 02/M02 A3045 RMK A01 T00161023  RH  076%=      5-min Rain = 0
KGU1 150531Z 01003KT 02/M02 A3045 RMK A01 T00151023  RH  076%=      5-min Rain = 0
KGU1 150532Z 01003KT 02/M02 A3045 RMK A01 T00151022  RH  077%=      5-min Rain = 0
KGU1 150533Z 01004KT 02/M02 A3045 RMK A01 T00161021  RH  077%=      5-min Rain = 0
KGU1 150534Z 00004KT 02/M02 A3045 RMK A01 T00171021  RH  077%=      5-min Rain = 0
KGU1 150535Z 34004KT 02/M02 A3045 RMK A01 T00171022  RH  076%=      5-min Rain = 0
KGU1 150536Z 33003KT 02/M02 A3045 RMK A01 T00151024  RH  076%=      5-min Rain = 0
KGU1 150537Z 34004KT 01/M02 A3045 RMK A01 T00131024  RH  077%=      5-min Rain = 0
KGU1 150538Z 35004KT 01/M02 A3045 RMK A01 T00121024  RH  078%=      5-min Rain = 0
KGU1 150539Z 00004KT 01/M02 A3045 RMK A01 T00131022  RH  078%=      5-min Rain = 0
KGU1 150540Z 01004KT 02/M02 A3045 RMK A01 T00151020  RH  078%=      5-min Rain = 0
KGU1 150541Z 02004KT 02/M02 A3045 RMK A01 T00171020  RH  077%=      5-min Rain = 0
KGU1 150542Z 02004KT 02/M02 A3045 RMK A01 T00171021  RH  076%=      5-min Rain = 0
KGU1 150543Z 01004KT 02/M02 A3045 RMK A01 T00181021  RH  076%=      5-min Rain = 0
KGU1 150544Z 01004KT 02/M02 A3045 RMK A01 T00191021  RH  076%=      5-min Rain = 0
KGU1 150545Z 01004KT 02/M02 A3045 RMK A01 T00191021  RH  076%=      5-min Rain = 0
KGU1 150546Z 00003KT 02/M02 A3045 RMK A01 T00181022  RH  076%=      5-min Rain = 0
KGU1 150547Z 35003KT 02/M02 A3045 RMK A01 T00171022  RH  076%=      5-min Rain = 0
KGU1 150548Z 35003KT 02/M02 A3045 RMK A01 T00161023  RH  076%=      5-min Rain = 0
KGU1 150549Z 01003KT 02/M02 A3045 RMK A01 T00151022  RH  077%=      5-min Rain = 0
KGU1 150550Z 02003KT 02/M02 A3045 RMK A01 T00151022  RH  077%=      5-min Rain = 0
KGU1 150551Z 02003KT 02/M02 A3045 RMK A01 T00161020  RH  077%=      5-min Rain = 0
KGU1 150552Z 02003KT 02/M02 A3045 RMK A01 T00181020  RH  077%=      5-min Rain = 0
KGU1 150553Z 01002KT 02/M02 A3045 RMK A01 T00181021  RH  076%=      5-min Rain = 0
KGU1 150554Z 34002KT 02/M02 A3045 RMK A01 T00171022  RH  076%=      5-min Rain = 0
KGU1 150555Z 35003KT 02/M02 A3045 RMK A01 T00161022  RH  076%=      5-min Rain = 0
KGU1 150556Z 33004KT 02/M02 A3045 RMK A01 T00161022  RH  076%=      5-min Rain = 0
KGU1 150557Z 31005KT 02/M02 A3045 RMK A01 T00151023  RH  077%=      5-min Rain = 0
KGU1 150558Z 32005KT 01/M02 A3045 RMK A01 T00131024  RH  077%=      5-min Rain = 0
KGU1 150559Z 32004KT 01/M02 A3045 RMK A01 T00121023  RH  078%=      5-min Rain = 0

Page generated in 0.1346 seconds.